GIA021 OEJN-WAAA
Flight info
| Callsign | GIA021 |
|---|---|
| Flight time | 11h 12m |
| Altitude | 36000 |
| Route | EGPO3V EGPOB V31 BSH L425 WDR P323 THAMD B549 KIVEL M551 ANGAL UM551 DONSA UL425 TVM N640 BIKOK M641 MELIN N640 KAT P570 MABIX P756 OKABU M300 SALAX A576 SJ A464 IRTAD B338 AKVOM M630 JUNHA M774 OBDOS L504 PNK W35 GURNI |
| Aircraft | A339/H-V/N |
Departure
| Time | 2026-05-04 06:11 |
|---|---|
| Airport | King Abdulaziz International Airport (OEJN) |
Arrival
| Time | 2026-05-04 17:23 |
|---|---|
| Airport | Sultan Hasanuddin International Airport (WAAA) |
| Time | Latitude | Longitude | Altitude | Speed | Heading |
|---|---|---|---|---|---|
| 2026-05-04 05:38 | 21.67884 | 39.15022 | 38 ft | 0 kts | 288° |
| 2026-05-04 05:54 | 21.67870 | 39.15069 | 37 ft | 2 kts | 288° |
| 2026-05-04 05:55 | 21.67865 | 39.15083 | 35 ft | 2 kts | 288° |
| 2026-05-04 05:55 | 21.67861 | 39.15098 | 35 ft | 2 kts | 294° |
| 2026-05-04 05:55 | 21.67855 | 39.15112 | 35 ft | 2 kts | 308° |
| 2026-05-04 05:55 | 21.67847 | 39.15124 | 35 ft | 2 kts | 316° |
| 2026-05-04 05:56 | 21.67836 | 39.15134 | 35 ft | 2 kts | 327° |
| 2026-05-04 05:56 | 21.67825 | 39.15143 | 35 ft | 2 kts | 338° |
| 2026-05-04 05:56 | 21.67814 | 39.15147 | 35 ft | 0 kts | 338° |
| 2026-05-04 05:58 | 21.67815 | 39.15147 | 35 ft | 1 kts | 338° |
| 2026-05-04 05:59 | 21.67846 | 39.15134 | 35 ft | 8 kts | 339° |
| 2026-05-04 05:59 | 21.67884 | 39.15118 | 38 ft | 9 kts | 340° |
| 2026-05-04 05:59 | 21.67937 | 39.15097 | 38 ft | 8 kts | 339° |
| 2026-05-04 05:59 | 21.67996 | 39.15072 | 37 ft | 10 kts | 338° |
| 2026-05-04 06:00 | 21.68066 | 39.15045 | 37 ft | 11 kts | 342° |
| 2026-05-04 06:00 | 21.68175 | 39.15007 | 37 ft | 13 kts | 346° |
| 2026-05-04 06:00 | 21.68222 | 39.15028 | 36 ft | 10 kts | 41° |
| 2026-05-04 06:00 | 21.68253 | 39.15094 | 37 ft | 9 kts | 68° |
| 2026-05-04 06:01 | 21.68275 | 39.15158 | 37 ft | 9 kts | 71° |
| 2026-05-04 06:01 | 21.68295 | 39.15218 | 37 ft | 8 kts | 68° |
| 2026-05-04 06:03 | 21.67663 | 39.15576 | 39 ft | 21 kts | 146° |
| 2026-05-04 06:03 | 21.67627 | 39.15688 | 40 ft | 12 kts | 134° |
| 2026-05-04 06:05 | 21.66636 | 39.16072 | 41 ft | 24 kts | 160° |
| 2026-05-04 06:05 | 21.66341 | 39.16186 | 42 ft | 20 kts | 160° |
| 2026-05-04 06:05 | 21.66225 | 39.16232 | 42 ft | 16 kts | 160° |
| 2026-05-04 06:06 | 21.66199 | 39.16242 | 42 ft | 1 kts | 160° |
| 2026-05-04 06:06 | 21.66168 | 39.16254 | 42 ft | 8 kts | 160° |
| 2026-05-04 06:06 | 21.66111 | 39.16281 | 42 ft | 9 kts | 147° |
| 2026-05-04 06:06 | 21.66089 | 39.16321 | 42 ft | 1 kts | 103° |
| 2026-05-04 06:07 | 21.66089 | 39.16323 | 42 ft | 0 kts | 100° |
| 2026-05-04 06:07 | 21.66093 | 39.16361 | 41 ft | 11 kts | 79° |
| 2026-05-04 06:07 | 21.66120 | 39.16444 | 41 ft | 12 kts | 66° |
| 2026-05-04 06:08 | 21.66183 | 39.16460 | 40 ft | 9 kts | 343° |
| 2026-05-04 06:08 | 21.66241 | 39.16439 | 40 ft | 9 kts | 340° |
| 2026-05-04 06:08 | 21.66404 | 39.16376 | 42 ft | 54 kts | 340° |
| 2026-05-04 06:08 | 21.66967 | 39.16153 | 42 ft | 117 kts | 340° |
| 2026-05-04 06:09 | 21.67903 | 39.15787 | 39 ft | 166 kts | 340° |
| 2026-05-04 06:09 | 21.69097 | 39.15316 | 202 ft | 189 kts | 340° |
| 2026-05-04 06:11 | 21.77121 | 39.17621 | 2356 ft | 258 kts | 99° |
| 2026-05-04 06:11 | 21.76455 | 39.19427 | 2475 ft | 271 kts | 127° |
| 2026-05-04 06:13 | 21.64555 | 39.25599 | 4982 ft | 281 kts | 143° |
| 2026-05-04 06:14 | 21.54713 | 39.32968 | 7119 ft | 292 kts | 143° |
| 2026-05-04 06:14 | 21.53033 | 39.34209 | 7488 ft | 294 kts | 144° |
| 2026-05-04 06:15 | 21.51343 | 39.35457 | 7863 ft | 295 kts | 144° |
| 2026-05-04 06:15 | 21.49649 | 39.36705 | 8257 ft | 296 kts | 144° |
| 2026-05-04 06:15 | 21.47947 | 39.37960 | 8632 ft | 297 kts | 144° |
| 2026-05-04 06:15 | 21.46237 | 39.39220 | 9034 ft | 299 kts | 144° |
| 2026-05-04 06:16 | 21.44518 | 39.40485 | 9428 ft | 300 kts | 144° |
| 2026-05-04 06:16 | 21.42813 | 39.41739 | 9832 ft | 301 kts | 144° |
| 2026-05-04 06:16 | 21.41082 | 39.43012 | 10211 ft | 303 kts | 144° |
| 2026-05-04 06:16 | 21.39308 | 39.44317 | 10328 ft | 315 kts | 144° |
| 2026-05-04 06:17 | 21.37464 | 39.45670 | 10430 ft | 327 kts | 144° |
| 2026-05-04 06:17 | 21.35555 | 39.47072 | 10561 ft | 338 kts | 145° |
| 2026-05-04 06:17 | 21.33582 | 39.48521 | 10711 ft | 346 kts | 145° |
| 2026-05-04 06:17 | 21.31593 | 39.49983 | 11113 ft | 347 kts | 145° |
| 2026-05-04 06:18 | 21.29603 | 39.51444 | 11525 ft | 346 kts | 146° |
| 2026-05-04 06:18 | 21.27616 | 39.52900 | 11941 ft | 347 kts | 146° |
| 2026-05-04 06:18 | 21.25615 | 39.54367 | 12316 ft | 348 kts | 146° |
| 2026-05-04 06:20 | 21.11368 | 39.64791 | 14800 ft | 361 kts | 147° |
| 2026-05-04 06:20 | 21.09317 | 39.66290 | 15108 ft | 363 kts | 147° |
| 2026-05-04 06:21 | 21.00867 | 39.72456 | 16399 ft | 371 kts | 147° |
| 2026-05-04 06:21 | 20.98725 | 39.74017 | 16707 ft | 374 kts | 147° |
| 2026-05-04 06:22 | 20.96570 | 39.75588 | 17026 ft | 376 kts | 147° |
| 2026-05-04 06:22 | 20.94426 | 39.77207 | 17316 ft | 379 kts | 142° |
| 2026-05-04 06:25 | 20.80889 | 40.12844 | 20907 ft | 417 kts | 111° |
| 2026-05-04 06:25 | 20.79898 | 40.15766 | 21204 ft | 418 kts | 111° |
| 2026-05-04 06:26 | 20.78901 | 40.18700 | 21451 ft | 422 kts | 111° |
| 2026-05-04 06:26 | 20.77896 | 40.21660 | 21755 ft | 424 kts | 111° |
| 2026-05-04 06:26 | 20.76885 | 40.24635 | 22024 ft | 427 kts | 111° |
| 2026-05-04 06:26 | 20.75867 | 40.27626 | 22290 ft | 429 kts | 111° |
| 2026-05-04 06:27 | 20.71753 | 40.39711 | 23389 ft | 439 kts | 111° |
| 2026-05-04 06:28 | 20.70706 | 40.42789 | 23653 ft | 441 kts | 111° |
| 2026-05-04 06:28 | 20.69651 | 40.45886 | 23848 ft | 444 kts | 111° |
| 2026-05-04 06:28 | 20.68590 | 40.48987 | 24121 ft | 445 kts | 111° |
| 2026-05-04 06:28 | 20.67526 | 40.52097 | 24364 ft | 447 kts | 111° |
| 2026-05-04 06:29 | 20.66456 | 40.55226 | 24609 ft | 449 kts | 111° |
| 2026-05-04 06:29 | 20.65382 | 40.58368 | 24834 ft | 452 kts | 111° |
| 2026-05-04 06:29 | 20.64304 | 40.61520 | 25113 ft | 452 kts | 111° |
| 2026-05-04 06:29 | 20.63222 | 40.64681 | 25335 ft | 455 kts | 111° |
| 2026-05-04 06:30 | 20.62130 | 40.67860 | 25570 ft | 457 kts | 111° |
| 2026-05-04 06:30 | 20.61035 | 40.71057 | 25822 ft | 459 kts | 111° |
| 2026-05-04 06:30 | 20.59950 | 40.74226 | 26089 ft | 459 kts | 111° |
| 2026-05-04 06:30 | 20.58833 | 40.77476 | 26281 ft | 462 kts | 111° |
| 2026-05-04 06:31 | 20.57723 | 40.80705 | 26515 ft | 464 kts | 111° |
| 2026-05-04 06:31 | 20.56609 | 40.83943 | 26732 ft | 466 kts | 111° |
| 2026-05-04 06:31 | 20.55488 | 40.87197 | 26907 ft | 469 kts | 111° |
| 2026-05-04 06:31 | 20.54365 | 40.90459 | 27191 ft | 469 kts | 112° |
| 2026-05-04 06:32 | 20.53236 | 40.93738 | 27391 ft | 471 kts | 112° |
| 2026-05-04 06:33 | 20.45234 | 41.16923 | 28835 ft | 483 kts | 112° |
| 2026-05-04 06:34 | 20.44071 | 41.20283 | 29055 ft | 484 kts | 112° |
| 2026-05-04 06:34 | 20.42903 | 41.23658 | 29213 ft | 486 kts | 112° |
| 2026-05-04 06:34 | 20.41727 | 41.27049 | 29466 ft | 487 kts | 112° |
| 2026-05-04 06:34 | 20.40549 | 41.30445 | 29658 ft | 489 kts | 112° |
| 2026-05-04 06:35 | 20.39365 | 41.33856 | 29856 ft | 491 kts | 112° |
| 2026-05-04 06:36 | 20.30986 | 41.57935 | 31190 ft | 500 kts | 112° |
| 2026-05-04 06:37 | 20.29771 | 41.61413 | 31371 ft | 501 kts | 112° |
| 2026-05-04 06:37 | 20.28565 | 41.64901 | 31559 ft | 503 kts | 111° |
| 2026-05-04 06:37 | 20.27441 | 41.68430 | 31746 ft | 504 kts | 110° |
| 2026-05-04 06:37 | 20.26350 | 41.71994 | 31926 ft | 506 kts | 109° |
| 2026-05-04 06:38 | 20.25262 | 41.75554 | 32102 ft | 507 kts | 110° |
| 2026-05-04 06:38 | 20.24155 | 41.79133 | 32270 ft | 508 kts | 110° |
| 2026-05-04 06:40 | 20.16257 | 42.04245 | 33167 ft | 515 kts | 110° |
| 2026-05-04 06:40 | 20.15114 | 42.07866 | 33198 ft | 517 kts | 110° |
| 2026-05-04 06:40 | 20.12818 | 42.15127 | 33314 ft | 518 kts | 110° |
| 2026-05-04 06:41 | 20.10516 | 42.22394 | 33470 ft | 519 kts | 110° |
| 2026-05-04 06:41 | 20.08210 | 42.29665 | 33632 ft | 518 kts | 110° |
| 2026-05-04 06:42 | 20.05917 | 42.36884 | 33794 ft | 518 kts | 110° |
| 2026-05-04 06:44 | 19.98666 | 42.66311 | 34355 ft | 520 kts | 82° |
| 2026-05-04 06:44 | 20.00185 | 42.73815 | 34473 ft | 519 kts | 76° |
| 2026-05-04 06:45 | 20.01535 | 42.80085 | 34565 ft | 519 kts | 77° |
| 2026-05-04 06:45 | 20.03125 | 42.87576 | 34705 ft | 519 kts | 77° |
| 2026-05-04 06:46 | 20.04694 | 42.95010 | 34842 ft | 518 kts | 77° |
| 2026-05-04 06:46 | 20.06262 | 43.02493 | 34976 ft | 518 kts | 77° |
| 2026-05-04 06:48 | 20.11724 | 43.28628 | 35384 ft | 516 kts | 77° |
| 2026-05-04 06:48 | 20.12502 | 43.32364 | 35447 ft | 516 kts | 77° |
| 2026-05-04 06:50 | 20.18666 | 43.62143 | 35970 ft | 515 kts | 78° |
| 2026-05-04 06:51 | 20.20194 | 43.69568 | 35931 ft | 514 kts | 78° |
| 2026-05-04 06:51 | 20.21725 | 43.77020 | 35883 ft | 515 kts | 78° |
| 2026-05-04 06:52 | 20.23250 | 43.84458 | 35823 ft | 515 kts | 78° |
| 2026-05-04 06:52 | 20.24776 | 43.91922 | 35893 ft | 515 kts | 78° |
| 2026-05-04 06:53 | 20.26285 | 43.99321 | 36022 ft | 514 kts | 78° |
| 2026-05-04 06:53 | 20.27803 | 44.06779 | 36023 ft | 513 kts | 78° |
| 2026-05-04 06:54 | 20.29313 | 44.14214 | 36019 ft | 513 kts | 78° |
| 2026-05-04 06:54 | 20.30819 | 44.21646 | 36012 ft | 513 kts | 78° |
| 2026-05-04 06:55 | 20.32324 | 44.29088 | 36010 ft | 513 kts | 78° |
| 2026-05-04 06:55 | 20.33813 | 44.36470 | 36006 ft | 513 kts | 78° |
| 2026-05-04 06:57 | 20.39774 | 44.66198 | 35991 ft | 513 kts | 78° |
| 2026-05-04 06:58 | 20.41256 | 44.73628 | 35993 ft | 512 kts | 78° |
| 2026-05-04 06:58 | 20.42735 | 44.81063 | 35990 ft | 512 kts | 78° |
| 2026-05-04 06:59 | 20.44209 | 44.88488 | 35990 ft | 512 kts | 78° |
| 2026-05-04 06:59 | 20.45669 | 44.95864 | 35991 ft | 511 kts | 78° |
| 2026-05-04 07:01 | 20.48485 | 45.21856 | 35988 ft | 504 kts | 109° |
| 2026-05-04 07:01 | 20.47208 | 45.25318 | 35986 ft | 501 kts | 120° |
| 2026-05-04 07:02 | 20.43360 | 45.31455 | 35984 ft | 498 kts | 128° |
| 2026-05-04 07:02 | 20.39363 | 45.37494 | 35983 ft | 498 kts | 127° |
| 2026-05-04 07:03 | 20.35384 | 45.43550 | 35980 ft | 498 kts | 127° |
| 2026-05-04 07:03 | 20.31404 | 45.49597 | 35977 ft | 499 kts | 127° |
| 2026-05-04 07:04 | 20.27420 | 45.55640 | 35972 ft | 499 kts | 127° |
| 2026-05-04 07:04 | 20.23446 | 45.61660 | 35971 ft | 499 kts | 127° |
| 2026-05-04 07:05 | 20.19453 | 45.67704 | 35967 ft | 499 kts | 127° |
| 2026-05-04 07:05 | 20.15453 | 45.73751 | 35969 ft | 499 kts | 127° |
| 2026-05-04 07:06 | 20.09442 | 45.82829 | 35970 ft | 500 kts | 127° |
| 2026-05-04 07:07 | 20.05435 | 45.88871 | 35966 ft | 500 kts | 127° |
| 2026-05-04 07:09 | 19.89407 | 46.12984 | 35964 ft | 500 kts | 127° |
| 2026-05-04 07:09 | 19.85388 | 46.19014 | 35964 ft | 500 kts | 127° |
| 2026-05-04 07:10 | 19.81365 | 46.25045 | 35962 ft | 500 kts | 127° |
| 2026-05-04 07:12 | 19.65271 | 46.49111 | 35952 ft | 499 kts | 127° |
| 2026-05-04 07:12 | 19.61247 | 46.55114 | 35948 ft | 499 kts | 127° |
| 2026-05-04 07:13 | 19.57224 | 46.61107 | 35951 ft | 498 kts | 127° |
| 2026-05-04 07:13 | 19.53204 | 46.67092 | 35946 ft | 498 kts | 127° |
| 2026-05-04 07:14 | 19.43165 | 46.82010 | 35937 ft | 497 kts | 127° |
| 2026-05-04 07:15 | 19.39175 | 46.87931 | 35935 ft | 496 kts | 127° |
| 2026-05-04 07:15 | 19.35155 | 46.93884 | 35929 ft | 496 kts | 127° |
| 2026-05-04 07:16 | 19.31142 | 46.99822 | 35930 ft | 496 kts | 127° |
| 2026-05-04 07:16 | 19.27120 | 47.05767 | 35926 ft | 496 kts | 127° |
| 2026-05-04 07:17 | 19.23098 | 47.11707 | 35928 ft | 496 kts | 127° |
| 2026-05-04 07:17 | 19.19101 | 47.17604 | 35924 ft | 496 kts | 127° |
| 2026-05-04 07:18 | 19.15081 | 47.23530 | 35925 ft | 496 kts | 127° |
| 2026-05-04 07:18 | 19.11054 | 47.29461 | 35923 ft | 496 kts | 127° |
| 2026-05-04 07:19 | 19.07022 | 47.35393 | 35921 ft | 496 kts | 127° |
| 2026-05-04 07:19 | 19.02985 | 47.41326 | 35924 ft | 496 kts | 127° |
| 2026-05-04 07:20 | 18.98952 | 47.47249 | 35923 ft | 496 kts | 127° |
| 2026-05-04 07:20 | 18.94920 | 47.53164 | 35922 ft | 496 kts | 127° |
| 2026-05-04 07:22 | 18.78823 | 47.76734 | 35922 ft | 495 kts | 127° |
| 2026-05-04 07:23 | 18.74804 | 47.82606 | 35922 ft | 494 kts | 127° |
| 2026-05-04 07:23 | 18.70772 | 47.88490 | 35920 ft | 494 kts | 127° |
| 2026-05-04 07:24 | 18.66744 | 47.94364 | 35919 ft | 494 kts | 127° |
| 2026-05-04 07:24 | 18.62717 | 48.00230 | 35914 ft | 493 kts | 127° |
| 2026-05-04 07:26 | 18.46642 | 48.23594 | 35910 ft | 492 kts | 127° |
| 2026-05-04 07:27 | 18.42618 | 48.29427 | 35907 ft | 492 kts | 127° |
| 2026-05-04 07:27 | 18.38594 | 48.35256 | 35907 ft | 492 kts | 127° |
| 2026-05-04 07:28 | 18.34566 | 48.41085 | 35905 ft | 492 kts | 127° |
| 2026-05-04 07:28 | 18.30541 | 48.46904 | 35903 ft | 492 kts | 127° |
| 2026-05-04 07:29 | 18.26491 | 48.52718 | 35901 ft | 492 kts | 128° |
| 2026-05-04 07:29 | 18.22436 | 48.58511 | 35902 ft | 492 kts | 128° |
| 2026-05-04 07:30 | 18.18378 | 48.64310 | 35899 ft | 492 kts | 128° |
| 2026-05-04 07:30 | 18.14326 | 48.70097 | 35895 ft | 492 kts | 128° |
| 2026-05-04 07:31 | 18.10295 | 48.75849 | 35900 ft | 491 kts | 127° |
| 2026-05-04 07:33 | 17.94753 | 48.97982 | 35893 ft | 491 kts | 128° |
| 2026-05-04 07:33 | 17.90687 | 49.03759 | 35893 ft | 490 kts | 128° |
| 2026-05-04 07:34 | 17.86630 | 49.09519 | 35893 ft | 490 kts | 128° |
| 2026-05-04 07:34 | 17.82572 | 49.15276 | 35898 ft | 490 kts | 128° |
| 2026-05-04 07:35 | 17.78537 | 49.20994 | 35894 ft | 490 kts | 128° |
| 2026-05-04 07:35 | 17.74471 | 49.26752 | 35893 ft | 490 kts | 128° |
| 2026-05-04 07:36 | 17.70414 | 49.32493 | 35889 ft | 490 kts | 128° |
| 2026-05-04 07:38 | 17.54166 | 49.55412 | 35895 ft | 490 kts | 128° |
| 2026-05-04 07:38 | 17.50097 | 49.61137 | 35888 ft | 489 kts | 128° |
| 2026-05-04 07:39 | 17.46032 | 49.66846 | 35887 ft | 489 kts | 128° |
| 2026-05-04 07:39 | 17.41967 | 49.72552 | 35891 ft | 489 kts | 127° |
| 2026-05-04 07:40 | 17.37906 | 49.78246 | 35890 ft | 488 kts | 127° |
| 2026-05-04 07:40 | 17.33844 | 49.83943 | 35891 ft | 488 kts | 127° |
| 2026-05-04 07:41 | 17.30044 | 49.89816 | 35893 ft | 488 kts | 117° |
| 2026-05-04 07:41 | 17.27774 | 49.96494 | 35891 ft | 489 kts | 101° |
| 2026-05-04 07:42 | 17.26883 | 50.03507 | 35889 ft | 489 kts | 97° |
| 2026-05-04 07:42 | 17.26028 | 50.10571 | 35896 ft | 488 kts | 97° |
| 2026-05-04 07:43 | 17.25157 | 50.17618 | 35893 ft | 488 kts | 97° |
| 2026-05-04 07:43 | 17.24285 | 50.24665 | 35902 ft | 488 kts | 97° |
| 2026-05-04 07:44 | 17.23417 | 50.31668 | 35902 ft | 488 kts | 97° |
| 2026-05-04 07:44 | 17.22543 | 50.38711 | 35908 ft | 488 kts | 97° |
| 2026-05-04 07:45 | 17.21667 | 50.45749 | 35909 ft | 488 kts | 97° |
| 2026-05-04 07:45 | 17.20808 | 50.52794 | 35905 ft | 488 kts | 97° |
| 2026-05-04 07:46 | 17.19948 | 50.59842 | 35909 ft | 489 kts | 97° |
| 2026-05-04 07:46 | 17.19083 | 50.66889 | 35912 ft | 488 kts | 97° |
| 2026-05-04 07:47 | 17.18214 | 50.73945 | 35913 ft | 488 kts | 97° |
| 2026-05-04 07:49 | 17.14723 | 51.02067 | 35927 ft | 488 kts | 97° |
| 2026-05-04 07:49 | 17.13843 | 51.09106 | 35931 ft | 489 kts | 97° |
| 2026-05-04 07:50 | 17.12961 | 51.16147 | 35927 ft | 488 kts | 97° |
| 2026-05-04 07:50 | 17.12114 | 51.23182 | 35928 ft | 488 kts | 97° |
| 2026-05-04 07:51 | 17.11276 | 51.30219 | 35925 ft | 488 kts | 97° |
| 2026-05-04 07:51 | 17.10429 | 51.37259 | 35935 ft | 488 kts | 97° |
| 2026-05-04 07:52 | 17.09580 | 51.44283 | 35925 ft | 487 kts | 97° |
| 2026-05-04 07:52 | 17.08728 | 51.51304 | 35921 ft | 486 kts | 97° |
| 2026-05-04 07:54 | 17.05303 | 51.79339 | 35921 ft | 485 kts | 97° |
| 2026-05-04 07:55 | 17.04448 | 51.86292 | 35925 ft | 485 kts | 97° |
| 2026-05-04 07:55 | 17.03585 | 51.93284 | 35927 ft | 485 kts | 97° |
| 2026-05-04 07:56 | 17.02717 | 52.00297 | 35925 ft | 485 kts | 97° |
| 2026-05-04 07:56 | 17.01849 | 52.07296 | 35922 ft | 485 kts | 97° |
| 2026-05-04 07:57 | 17.00978 | 52.14293 | 35920 ft | 486 kts | 97° |
| 2026-05-04 07:57 | 17.00105 | 52.21289 | 35919 ft | 486 kts | 97° |
| 2026-05-04 07:58 | 16.99229 | 52.28287 | 35919 ft | 486 kts | 97° |
| 2026-05-04 07:58 | 16.98350 | 52.35291 | 35918 ft | 486 kts | 97° |
| 2026-05-04 07:59 | 16.97471 | 52.42293 | 35916 ft | 486 kts | 97° |
| 2026-05-04 07:59 | 16.96590 | 52.49303 | 35910 ft | 486 kts | 97° |
| 2026-05-04 08:00 | 16.95707 | 52.56308 | 35916 ft | 486 kts | 97° |
| 2026-05-04 08:02 | 16.92153 | 52.84305 | 35907 ft | 487 kts | 97° |
| 2026-05-04 08:02 | 16.91257 | 52.91317 | 35912 ft | 487 kts | 97° |
| 2026-05-04 08:03 | 16.90783 | 52.98371 | 35916 ft | 487 kts | 90° |
| 2026-05-04 08:03 | 16.90658 | 53.05454 | 35906 ft | 487 kts | 91° |
| 2026-05-04 08:04 | 16.90508 | 53.12533 | 35909 ft | 488 kts | 91° |
| 2026-05-04 08:04 | 16.90354 | 53.19609 | 35909 ft | 488 kts | 91° |
| 2026-05-04 08:05 | 16.90200 | 53.26648 | 35910 ft | 488 kts | 91° |
| 2026-05-04 08:05 | 16.90043 | 53.33731 | 35916 ft | 488 kts | 91° |
| 2026-05-04 08:06 | 16.89884 | 53.40808 | 35904 ft | 488 kts | 91° |
| 2026-05-04 08:06 | 16.89722 | 53.47901 | 35908 ft | 488 kts | 91° |
| 2026-05-04 08:08 | 16.89049 | 53.76178 | 35865 ft | 488 kts | 91° |
| 2026-05-04 08:11 | 16.89046 | 54.08044 | 35855 ft | 487 kts | 90° |
| 2026-05-04 08:11 | 16.89050 | 54.18648 | 35853 ft | 487 kts | 90° |
| 2026-05-04 08:12 | 16.89051 | 54.25724 | 35851 ft | 487 kts | 90° |
| 2026-05-04 08:12 | 16.89049 | 54.32801 | 35852 ft | 487 kts | 90° |
| 2026-05-04 08:13 | 16.89044 | 54.39824 | 35855 ft | 487 kts | 90° |
| 2026-05-04 08:13 | 16.89037 | 54.46898 | 35857 ft | 487 kts | 90° |
| 2026-05-04 08:14 | 16.89029 | 54.53977 | 35857 ft | 487 kts | 90° |
| 2026-05-04 08:16 | 16.88942 | 54.82293 | 35858 ft | 487 kts | 90° |
| 2026-05-04 08:16 | 16.88916 | 54.89325 | 35854 ft | 488 kts | 90° |
| 2026-05-04 08:17 | 16.88885 | 54.96408 | 35856 ft | 488 kts | 90° |
| 2026-05-04 08:17 | 16.88853 | 55.03486 | 35851 ft | 488 kts | 91° |
| 2026-05-04 08:19 | 16.88706 | 55.30618 | 35834 ft | 487 kts | 91° |
| 2026-05-04 08:20 | 16.88662 | 55.37695 | 35827 ft | 487 kts | 91° |
| 2026-05-04 08:20 | 16.88616 | 55.44776 | 35826 ft | 487 kts | 91° |
| 2026-05-04 08:21 | 16.88567 | 55.51856 | 35829 ft | 487 kts | 91° |
| 2026-05-04 08:21 | 16.88511 | 55.58936 | 35828 ft | 487 kts | 91° |
| 2026-05-04 08:22 | 16.87792 | 55.65907 | 35827 ft | 486 kts | 99° |
| 2026-05-04 08:24 | 16.83720 | 55.93840 | 35835 ft | 486 kts | 99° |
| 2026-05-04 08:24 | 16.82701 | 56.00811 | 35835 ft | 486 kts | 99° |
| 2026-05-04 08:25 | 16.81678 | 56.07787 | 35836 ft | 486 kts | 99° |
| 2026-05-04 08:25 | 16.80654 | 56.14757 | 35835 ft | 485 kts | 99° |
| 2026-05-04 08:27 | 16.76546 | 56.42560 | 35845 ft | 485 kts | 99° |
| 2026-05-04 08:28 | 16.75513 | 56.49509 | 35844 ft | 485 kts | 99° |
| 2026-05-04 08:28 | 16.74479 | 56.56454 | 35845 ft | 484 kts | 99° |
| 2026-05-04 08:29 | 16.73442 | 56.63397 | 35843 ft | 484 kts | 99° |
| 2026-05-04 08:31 | 16.69273 | 56.91144 | 35846 ft | 483 kts | 99° |
| 2026-05-04 08:33 | 16.65193 | 57.18791 | 35846 ft | 482 kts | 98° |
| 2026-05-04 08:35 | 16.61283 | 57.46431 | 35850 ft | 482 kts | 98° |
| 2026-05-04 08:35 | 16.60296 | 57.53340 | 35851 ft | 482 kts | 98° |
| 2026-05-04 08:37 | 16.56833 | 57.77466 | 35854 ft | 482 kts | 98° |
| 2026-05-04 08:38 | 16.55836 | 57.84372 | 35855 ft | 481 kts | 98° |
| 2026-05-04 08:38 | 16.54837 | 57.91278 | 35853 ft | 481 kts | 98° |
| 2026-05-04 08:40 | 16.50825 | 58.18851 | 35856 ft | 480 kts | 98° |
| 2026-05-04 08:41 | 16.49824 | 58.25685 | 35857 ft | 480 kts | 98° |
| 2026-05-04 08:41 | 16.48816 | 58.32560 | 35857 ft | 480 kts | 98° |
| 2026-05-04 08:42 | 16.47805 | 58.39435 | 35856 ft | 480 kts | 98° |
| 2026-05-04 08:42 | 16.46791 | 58.46310 | 35857 ft | 480 kts | 98° |
| 2026-05-04 08:43 | 16.45777 | 58.53174 | 35856 ft | 480 kts | 98° |
| 2026-05-04 08:43 | 16.44759 | 58.60049 | 35857 ft | 479 kts | 98° |
| 2026-05-04 08:44 | 16.43741 | 58.66908 | 35857 ft | 479 kts | 98° |
| 2026-05-04 08:46 | 16.39652 | 58.94298 | 35859 ft | 479 kts | 98° |
| 2026-05-04 08:46 | 16.38624 | 59.01145 | 35856 ft | 478 kts | 98° |
| 2026-05-04 08:47 | 16.37592 | 59.08001 | 35856 ft | 478 kts | 98° |
| 2026-05-04 08:47 | 16.36558 | 59.14856 | 35856 ft | 479 kts | 98° |
| 2026-05-04 08:48 | 16.35530 | 59.21658 | 35858 ft | 478 kts | 98° |
| 2026-05-04 08:48 | 16.34492 | 59.28503 | 35859 ft | 478 kts | 98° |
| 2026-05-04 08:49 | 16.33454 | 59.35344 | 35857 ft | 478 kts | 98° |
| 2026-05-04 08:50 | 16.29799 | 59.59301 | 35853 ft | 479 kts | 98° |
| 2026-05-04 08:51 | 16.28749 | 59.66141 | 35852 ft | 478 kts | 98° |
| 2026-05-04 08:51 | 16.27698 | 59.72982 | 35852 ft | 478 kts | 98° |
| 2026-05-04 08:52 | 16.26646 | 59.79814 | 35854 ft | 478 kts | 98° |
| 2026-05-04 08:52 | 16.25590 | 59.86654 | 35845 ft | 478 kts | 98° |
| 2026-05-04 08:54 | 16.19437 | 60.13505 | 35848 ft | 479 kts | 107° |
| 2026-05-04 08:55 | 16.17435 | 60.20113 | 35851 ft | 479 kts | 107° |
| 2026-05-04 08:55 | 16.15431 | 60.26715 | 35849 ft | 479 kts | 107° |
| 2026-05-04 09:01 | 15.94268 | 60.95816 | 35846 ft | 477 kts | 107° |
| 2026-05-04 09:01 | 15.92243 | 61.02381 | 35843 ft | 477 kts | 107° |
| 2026-05-04 09:02 | 15.90215 | 61.08952 | 35842 ft | 477 kts | 107° |
| 2026-05-04 09:02 | 15.88185 | 61.15513 | 35845 ft | 477 kts | 107° |
| 2026-05-04 09:03 | 15.86155 | 61.22070 | 35846 ft | 477 kts | 107° |
| 2026-05-04 09:03 | 15.84137 | 61.28582 | 35845 ft | 477 kts | 107° |
| 2026-05-04 09:04 | 15.82104 | 61.35139 | 35845 ft | 477 kts | 107° |
| 2026-05-04 09:04 | 15.80072 | 61.41682 | 35844 ft | 476 kts | 107° |
| 2026-05-04 09:05 | 15.78035 | 61.48232 | 35842 ft | 477 kts | 107° |
| 2026-05-04 09:05 | 15.75995 | 61.54778 | 35842 ft | 476 kts | 107° |
| 2026-05-04 09:06 | 15.73958 | 61.61315 | 35843 ft | 476 kts | 107° |
| 2026-05-04 09:08 | 15.66129 | 61.86368 | 35843 ft | 476 kts | 107° |
| 2026-05-04 09:08 | 15.63748 | 61.93965 | 35846 ft | 476 kts | 107° |
| 2026-05-04 09:09 | 15.62045 | 61.99395 | 35842 ft | 476 kts | 107° |
| 2026-05-04 09:09 | 15.59988 | 62.05938 | 35843 ft | 476 kts | 107° |
| 2026-05-04 09:10 | 15.57935 | 62.12466 | 35845 ft | 476 kts | 107° |
| 2026-05-04 09:10 | 15.55882 | 62.18991 | 35844 ft | 476 kts | 107° |
| 2026-05-04 09:11 | 15.53824 | 62.25519 | 35842 ft | 475 kts | 107° |
| 2026-05-04 09:11 | 15.51768 | 62.32033 | 35843 ft | 476 kts | 107° |
| 2026-05-04 09:12 | 15.49709 | 62.38554 | 35846 ft | 476 kts | 107° |
| 2026-05-04 09:14 | 15.41466 | 62.64574 | 35847 ft | 476 kts | 107° |
| 2026-05-04 09:14 | 15.39397 | 62.71085 | 35845 ft | 476 kts | 107° |
| 2026-05-04 09:15 | 15.37326 | 62.77606 | 35845 ft | 476 kts | 107° |
| 2026-05-04 09:15 | 15.35253 | 62.84116 | 35849 ft | 476 kts | 107° |
| 2026-05-04 09:17 | 15.25914 | 63.13356 | 35848 ft | 476 kts | 107° |
| 2026-05-04 09:18 | 15.23829 | 63.19860 | 35849 ft | 475 kts | 107° |
| 2026-05-04 09:18 | 15.21746 | 63.26359 | 35849 ft | 475 kts | 107° |
| 2026-05-04 09:19 | 15.19673 | 63.32808 | 35848 ft | 475 kts | 107° |
| 2026-05-04 09:19 | 15.17584 | 63.39312 | 35848 ft | 476 kts | 107° |
| 2026-05-04 09:20 | 15.15491 | 63.45816 | 35850 ft | 476 kts | 107° |
| 2026-05-04 09:20 | 15.13397 | 63.52318 | 35850 ft | 476 kts | 107° |
| 2026-05-04 09:21 | 15.11301 | 63.58829 | 35852 ft | 476 kts | 107° |
| 2026-05-04 09:21 | 15.09203 | 63.65321 | 35847 ft | 475 kts | 107° |
| 2026-05-04 09:22 | 15.07106 | 63.71813 | 35847 ft | 477 kts | 107° |
| 2026-05-04 09:22 | 15.05002 | 63.78311 | 35850 ft | 475 kts | 107° |
| 2026-05-04 09:23 | 15.02916 | 63.84753 | 35852 ft | 476 kts | 107° |
| 2026-05-04 09:23 | 15.00813 | 63.91243 | 35850 ft | 476 kts | 107° |
| 2026-05-04 09:25 | 14.92371 | 64.17213 | 35850 ft | 476 kts | 107° |
| 2026-05-04 09:26 | 14.90255 | 64.23705 | 35849 ft | 476 kts | 107° |
| 2026-05-04 09:26 | 14.88139 | 64.30196 | 35851 ft | 477 kts | 107° |
| 2026-05-04 09:27 | 14.86034 | 64.36647 | 35851 ft | 477 kts | 107° |
| 2026-05-04 09:27 | 14.83911 | 64.43136 | 35851 ft | 476 kts | 107° |
| 2026-05-04 09:28 | 14.81781 | 64.49644 | 35851 ft | 477 kts | 107° |
| 2026-05-04 09:28 | 14.79656 | 64.56133 | 35851 ft | 477 kts | 107° |
| 2026-05-04 09:29 | 14.77523 | 64.62636 | 35852 ft | 478 kts | 107° |
| 2026-05-04 09:29 | 14.75389 | 64.69129 | 35852 ft | 477 kts | 107° |
| 2026-05-04 09:30 | 14.73253 | 64.75628 | 35851 ft | 478 kts | 107° |
| 2026-05-04 09:30 | 14.71130 | 64.82079 | 35851 ft | 478 kts | 108° |
| 2026-05-04 09:31 | 14.68990 | 64.88579 | 35850 ft | 478 kts | 107° |
| 2026-05-04 09:31 | 14.66847 | 64.95079 | 35851 ft | 478 kts | 108° |
| 2026-05-04 09:32 | 14.64705 | 65.01572 | 35850 ft | 478 kts | 107° |
| 2026-05-04 09:34 | 14.56080 | 65.23834 | 35844 ft | 480 kts | 122° |
| 2026-05-04 09:34 | 14.54252 | 65.26721 | 35845 ft | 481 kts | 121° |
| 2026-05-04 09:34 | 14.50635 | 65.32535 | 35848 ft | 481 kts | 121° |
| 2026-05-04 09:35 | 14.47053 | 65.38317 | 35845 ft | 481 kts | 121° |
| 2026-05-04 09:35 | 14.43443 | 65.44139 | 35847 ft | 481 kts | 121° |
| 2026-05-04 09:37 | 14.28964 | 65.67408 | 35848 ft | 482 kts | 121° |
| 2026-05-04 09:38 | 14.25359 | 65.73193 | 35846 ft | 482 kts | 121° |
| 2026-05-04 09:38 | 14.21730 | 65.79012 | 35848 ft | 482 kts | 121° |
| 2026-05-04 09:39 | 14.18096 | 65.84834 | 35844 ft | 483 kts | 121° |
| 2026-05-04 09:39 | 14.14464 | 65.90648 | 35845 ft | 483 kts | 121° |
| 2026-05-04 09:40 | 14.10828 | 65.96465 | 35847 ft | 483 kts | 121° |
| 2026-05-04 09:40 | 14.07186 | 66.02288 | 35848 ft | 483 kts | 121° |
| 2026-05-04 09:42 | 13.92607 | 66.25556 | 35845 ft | 483 kts | 121° |
| 2026-05-04 09:43 | 13.88975 | 66.31342 | 35844 ft | 484 kts | 121° |
| 2026-05-04 09:43 | 13.85324 | 66.37156 | 35847 ft | 484 kts | 121° |
| 2026-05-04 09:44 | 13.81667 | 66.42974 | 35847 ft | 484 kts | 121° |
| 2026-05-04 09:46 | 13.67023 | 66.66232 | 35843 ft | 484 kts | 122° |
| 2026-05-04 09:46 | 13.63356 | 66.72047 | 35849 ft | 485 kts | 122° |
| 2026-05-04 09:47 | 13.59709 | 66.77825 | 35842 ft | 485 kts | 122° |
| 2026-05-04 09:49 | 13.45004 | 67.01086 | 35848 ft | 485 kts | 122° |
| 2026-05-04 09:51 | 13.32145 | 67.21376 | 35849 ft | 485 kts | 122° |
| 2026-05-04 09:51 | 13.28456 | 67.27188 | 35853 ft | 485 kts | 122° |
| 2026-05-04 09:52 | 13.24769 | 67.32994 | 35848 ft | 485 kts | 122° |
| 2026-05-04 09:52 | 13.21079 | 67.38798 | 35849 ft | 485 kts | 122° |
| 2026-05-04 09:53 | 13.17410 | 67.44567 | 35854 ft | 485 kts | 122° |
| 2026-05-04 09:53 | 13.13718 | 67.50370 | 35853 ft | 485 kts | 122° |
| 2026-05-04 09:54 | 13.10027 | 67.56166 | 35852 ft | 485 kts | 122° |
| 2026-05-04 09:54 | 13.06954 | 67.60988 | 35854 ft | 485 kts | 122° |
| 2026-05-04 09:55 | 13.03260 | 67.66782 | 35853 ft | 485 kts | 122° |
| 2026-05-04 09:55 | 12.99562 | 67.72579 | 35851 ft | 485 kts | 122° |
| 2026-05-04 09:56 | 12.95860 | 67.78378 | 35854 ft | 485 kts | 122° |
| 2026-05-04 09:56 | 12.92160 | 67.84170 | 35853 ft | 486 kts | 122° |
| 2026-05-04 09:57 | 12.88456 | 67.89964 | 35855 ft | 486 kts | 122° |
| 2026-05-04 09:57 | 12.84755 | 67.95752 | 35855 ft | 486 kts | 122° |
| 2026-05-04 09:58 | 12.81049 | 68.01546 | 35855 ft | 486 kts | 122° |
| 2026-05-04 09:58 | 12.77359 | 68.07347 | 35856 ft | 486 kts | 122° |
| 2026-05-04 10:00 | 12.62649 | 68.30535 | 35856 ft | 486 kts | 122° |
| 2026-05-04 10:04 | 12.36794 | 68.71120 | 35859 ft | 486 kts | 122° |
| 2026-05-04 10:04 | 12.33094 | 68.76913 | 35858 ft | 486 kts | 122° |
| 2026-05-04 10:05 | 12.29393 | 68.82706 | 35854 ft | 486 kts | 122° |
| 2026-05-04 10:05 | 12.25693 | 68.88493 | 35854 ft | 486 kts | 122° |
| 2026-05-04 10:06 | 12.21994 | 68.94274 | 35853 ft | 486 kts | 122° |
| 2026-05-04 10:06 | 12.18295 | 69.00053 | 35856 ft | 485 kts | 122° |
| 2026-05-04 10:08 | 12.05423 | 69.20237 | 35855 ft | 484 kts | 122° |
| 2026-05-04 10:08 | 12.01741 | 69.26003 | 35854 ft | 484 kts | 123° |
| 2026-05-04 10:09 | 11.98061 | 69.31762 | 35855 ft | 484 kts | 123° |
| 2026-05-04 10:09 | 11.94382 | 69.37517 | 35853 ft | 484 kts | 123° |
| 2026-05-04 10:10 | 11.90725 | 69.43232 | 35853 ft | 484 kts | 123° |
| 2026-05-04 10:10 | 11.87045 | 69.48983 | 35851 ft | 484 kts | 123° |
| 2026-05-04 10:11 | 11.83362 | 69.54733 | 35851 ft | 484 kts | 123° |
| 2026-05-04 10:11 | 11.79677 | 69.60482 | 35852 ft | 484 kts | 123° |
| 2026-05-04 10:12 | 11.75995 | 69.66225 | 35852 ft | 484 kts | 123° |
| 2026-05-04 10:12 | 11.72309 | 69.71970 | 35850 ft | 484 kts | 123° |
| 2026-05-04 10:13 | 11.68618 | 69.77719 | 35849 ft | 484 kts | 123° |
| 2026-05-04 10:13 | 11.64923 | 69.83472 | 35847 ft | 484 kts | 123° |
| 2026-05-04 10:14 | 11.61227 | 69.89222 | 35847 ft | 485 kts | 123° |
| 2026-05-04 10:16 | 11.46364 | 70.12128 | 35852 ft | 485 kts | 123° |
| 2026-05-04 10:16 | 11.42630 | 70.17877 | 35852 ft | 486 kts | 123° |
| 2026-05-04 10:17 | 11.38902 | 70.23614 | 35852 ft | 486 kts | 123° |
| 2026-05-04 10:19 | 11.23950 | 70.46586 | 35852 ft | 486 kts | 124° |
| 2026-05-04 10:19 | 11.20204 | 70.52334 | 35848 ft | 487 kts | 124° |
| 2026-05-04 10:20 | 11.16459 | 70.58077 | 35845 ft | 487 kts | 124° |
| 2026-05-04 10:20 | 11.12712 | 70.63820 | 35849 ft | 487 kts | 124° |
| 2026-05-04 10:21 | 11.08961 | 70.69566 | 35847 ft | 487 kts | 124° |
| 2026-05-04 10:21 | 11.05206 | 70.75315 | 35847 ft | 487 kts | 124° |
| 2026-05-04 10:22 | 10.99598 | 70.83893 | 35850 ft | 487 kts | 124° |
| 2026-05-04 10:23 | 10.95844 | 70.89633 | 35848 ft | 487 kts | 124° |
| 2026-05-04 10:25 | 10.80859 | 71.12512 | 35848 ft | 486 kts | 124° |
| 2026-05-04 10:25 | 10.77108 | 71.18232 | 35845 ft | 486 kts | 124° |
| 2026-05-04 10:26 | 10.73358 | 71.23947 | 35846 ft | 485 kts | 124° |
| 2026-05-04 10:26 | 10.69609 | 71.29658 | 35842 ft | 485 kts | 124° |
| 2026-05-04 10:27 | 10.65862 | 71.35361 | 35841 ft | 485 kts | 124° |
| 2026-05-04 10:27 | 10.62105 | 71.41077 | 35840 ft | 485 kts | 124° |
| 2026-05-04 10:28 | 10.58353 | 71.46783 | 35839 ft | 485 kts | 124° |
| 2026-05-04 10:28 | 10.54618 | 71.52462 | 35840 ft | 486 kts | 124° |
| 2026-05-04 10:29 | 10.50862 | 71.58168 | 35843 ft | 486 kts | 124° |
| 2026-05-04 10:29 | 10.47105 | 71.63873 | 35843 ft | 486 kts | 124° |
| 2026-05-04 10:30 | 10.43344 | 71.69580 | 35835 ft | 486 kts | 124° |
| 2026-05-04 10:30 | 10.39577 | 71.75294 | 35840 ft | 486 kts | 124° |
| 2026-05-04 10:31 | 10.35813 | 71.81001 | 35838 ft | 486 kts | 124° |
| 2026-05-04 10:32 | 10.22647 | 72.00939 | 35841 ft | 486 kts | 124° |
| 2026-05-04 10:33 | 10.18906 | 72.06598 | 35843 ft | 486 kts | 124° |
| 2026-05-04 10:33 | 10.15143 | 72.12287 | 35841 ft | 485 kts | 124° |
| 2026-05-04 10:34 | 10.11377 | 72.17978 | 35840 ft | 485 kts | 124° |
| 2026-05-04 10:34 | 10.07614 | 72.23663 | 35842 ft | 485 kts | 124° |
| 2026-05-04 10:35 | 10.03851 | 72.29344 | 35842 ft | 485 kts | 124° |
| 2026-05-04 10:35 | 10.00086 | 72.35026 | 35841 ft | 485 kts | 124° |
| 2026-05-04 10:36 | 9.96703 | 72.40940 | 35843 ft | 485 kts | 115° |
| 2026-05-04 10:36 | 9.94384 | 72.47372 | 35840 ft | 485 kts | 109° |
| 2026-05-04 10:37 | 9.92276 | 72.53868 | 35844 ft | 485 kts | 109° |
| 2026-05-04 10:37 | 9.90147 | 72.60362 | 35844 ft | 484 kts | 109° |
| 2026-05-04 10:39 | 9.82729 | 72.82966 | 35841 ft | 483 kts | 109° |
| 2026-05-04 10:40 | 9.80609 | 72.89419 | 35836 ft | 482 kts | 109° |
| 2026-05-04 10:40 | 9.78489 | 72.95869 | 35836 ft | 482 kts | 109° |
| 2026-05-04 10:41 | 9.76362 | 73.02331 | 35834 ft | 482 kts | 109° |
| 2026-05-04 10:41 | 9.74253 | 73.08738 | 35835 ft | 482 kts | 109° |
| 2026-05-04 10:42 | 9.72129 | 73.15184 | 35836 ft | 482 kts | 109° |
| 2026-05-04 10:42 | 9.70003 | 73.21630 | 35835 ft | 482 kts | 109° |
| 2026-05-04 10:43 | 9.67877 | 73.28076 | 35834 ft | 482 kts | 109° |
| 2026-05-04 10:45 | 9.59714 | 73.52775 | 35834 ft | 483 kts | 109° |
| 2026-05-04 10:45 | 9.57577 | 73.59232 | 35836 ft | 483 kts | 109° |
| 2026-05-04 10:46 | 9.55441 | 73.65679 | 35833 ft | 483 kts | 109° |
| 2026-05-04 10:46 | 9.53304 | 73.72126 | 35834 ft | 483 kts | 109° |
| 2026-05-04 10:47 | 9.51163 | 73.78580 | 35833 ft | 483 kts | 109° |
| 2026-05-04 10:47 | 9.49023 | 73.85025 | 35835 ft | 482 kts | 109° |
| 2026-05-04 10:49 | 9.40474 | 74.10744 | 35834 ft | 482 kts | 109° |
| 2026-05-04 10:50 | 9.38371 | 74.17195 | 35832 ft | 482 kts | 109° |
| 2026-05-04 10:52 | 9.29975 | 74.42973 | 35837 ft | 481 kts | 109° |
| 2026-05-04 10:52 | 9.27886 | 74.49367 | 35836 ft | 481 kts | 109° |
| 2026-05-04 10:54 | 9.19473 | 74.75073 | 35832 ft | 480 kts | 109° |
| 2026-05-04 10:56 | 9.11058 | 75.00722 | 35830 ft | 480 kts | 109° |
| 2026-05-04 10:57 | 9.08952 | 75.07130 | 35830 ft | 480 kts | 109° |
| 2026-05-04 10:57 | 9.06844 | 75.13538 | 35828 ft | 479 kts | 109° |
| 2026-05-04 10:58 | 9.04738 | 75.19938 | 35829 ft | 479 kts | 109° |
| 2026-05-04 10:58 | 9.02645 | 75.26294 | 35829 ft | 479 kts | 109° |
| 2026-05-04 10:59 | 9.00539 | 75.32687 | 35827 ft | 479 kts | 109° |
| 2026-05-04 10:59 | 8.98431 | 75.39080 | 35829 ft | 479 kts | 109° |
| 2026-05-04 11:00 | 8.96321 | 75.45477 | 35827 ft | 479 kts | 109° |
| 2026-05-04 11:02 | 8.87875 | 75.71034 | 35805 ft | 478 kts | 109° |
| 2026-05-04 11:05 | 8.72053 | 76.18745 | 35790 ft | 477 kts | 109° |
| 2026-05-04 11:06 | 8.69941 | 76.25095 | 35785 ft | 477 kts | 109° |
| 2026-05-04 11:06 | 8.67827 | 76.31450 | 35785 ft | 477 kts | 109° |
| 2026-05-04 11:10 | 8.53052 | 76.75753 | 35768 ft | 475 kts | 110° |
| 2026-05-04 11:12 | 8.46813 | 76.98183 | 35767 ft | 478 kts | 97° |
| 2026-05-04 11:12 | 8.46460 | 77.01524 | 35766 ft | 478 kts | 98° |
| 2026-05-04 11:12 | 8.45721 | 77.08200 | 35769 ft | 478 kts | 98° |
| 2026-05-04 11:13 | 8.44972 | 77.14875 | 35773 ft | 478 kts | 98° |
| 2026-05-04 11:13 | 8.44225 | 77.21555 | 35775 ft | 478 kts | 98° |
| 2026-05-04 11:16 | 8.40477 | 77.54925 | 35761 ft | 480 kts | 98° |
| 2026-05-04 11:16 | 8.39714 | 77.61671 | 35760 ft | 481 kts | 98° |
| 2026-05-04 11:17 | 8.38954 | 77.68387 | 35758 ft | 482 kts | 97° |
| 2026-05-04 11:19 | 8.35894 | 77.95377 | 35750 ft | 485 kts | 97° |
| 2026-05-04 11:19 | 8.35123 | 78.02152 | 35755 ft | 486 kts | 98° |
| 2026-05-04 11:20 | 8.34347 | 78.08944 | 35752 ft | 487 kts | 98° |
| 2026-05-04 11:20 | 8.33571 | 78.15744 | 35759 ft | 488 kts | 98° |
| 2026-05-04 11:22 | 8.30441 | 78.43053 | 35767 ft | 488 kts | 98° |
| 2026-05-04 11:23 | 8.29659 | 78.49810 | 35763 ft | 487 kts | 98° |
| 2026-05-04 11:24 | 8.21535 | 78.67699 | 35773 ft | 475 kts | 134° |
| 2026-05-04 11:25 | 8.19320 | 78.70172 | 35771 ft | 474 kts | 133° |
| 2026-05-04 11:25 | 8.14907 | 78.75138 | 35773 ft | 475 kts | 133° |
| 2026-05-04 11:27 | 7.95099 | 78.97397 | 35777 ft | 474 kts | 133° |
| 2026-05-04 11:28 | 7.90687 | 79.02349 | 35783 ft | 474 kts | 133° |
| 2026-05-04 11:28 | 7.86277 | 79.07300 | 35783 ft | 474 kts | 134° |
| 2026-05-04 11:29 | 7.81864 | 79.12247 | 35781 ft | 474 kts | 134° |
| 2026-05-04 11:29 | 7.78170 | 79.16392 | 35780 ft | 474 kts | 134° |
| 2026-05-04 11:33 | 7.47563 | 79.51116 | 35786 ft | 474 kts | 133° |
| 2026-05-04 11:33 | 7.43193 | 79.56087 | 35786 ft | 474 kts | 133° |
| 2026-05-04 11:34 | 7.38820 | 79.61060 | 35786 ft | 474 kts | 133° |
| 2026-05-04 11:34 | 7.34445 | 79.66033 | 35783 ft | 474 kts | 133° |
| 2026-05-04 11:35 | 7.30064 | 79.71011 | 35778 ft | 475 kts | 133° |
| 2026-05-04 11:35 | 7.25678 | 79.75992 | 35772 ft | 475 kts | 133° |
| 2026-05-04 11:36 | 7.21292 | 79.80972 | 35769 ft | 476 kts | 133° |
| 2026-05-04 11:36 | 7.17304 | 79.86290 | 35766 ft | 478 kts | 121° |
| 2026-05-04 11:37 | 7.14708 | 79.92463 | 35769 ft | 481 kts | 107° |
| 2026-05-04 11:37 | 7.13119 | 79.99017 | 35775 ft | 482 kts | 105° |
| 2026-05-04 11:38 | 7.11497 | 80.05579 | 35780 ft | 483 kts | 105° |
| 2026-05-04 11:38 | 7.10780 | 80.08462 | 35785 ft | 483 kts | 105° |
| 2026-05-04 11:39 | 7.09629 | 80.13097 | 35794 ft | 484 kts | 105° |
| 2026-05-04 11:41 | 7.03920 | 80.36102 | 35834 ft | 485 kts | 105° |
| 2026-05-04 11:41 | 7.02282 | 80.42694 | 35843 ft | 485 kts | 105° |
| 2026-05-04 11:42 | 7.00644 | 80.49279 | 35845 ft | 484 kts | 105° |
| 2026-05-04 11:42 | 6.99010 | 80.55849 | 35855 ft | 484 kts | 105° |
| 2026-05-04 11:43 | 6.97384 | 80.62381 | 35857 ft | 484 kts | 105° |
| 2026-05-04 11:43 | 6.95748 | 80.68949 | 35864 ft | 483 kts | 105° |
| 2026-05-04 11:44 | 6.94108 | 80.75526 | 35858 ft | 483 kts | 105° |
| 2026-05-04 11:44 | 6.93273 | 80.78876 | 35855 ft | 484 kts | 105° |
| 2026-05-04 11:45 | 6.92317 | 80.82710 | 35853 ft | 483 kts | 105° |
| 2026-05-04 11:46 | 6.90679 | 80.89271 | 35843 ft | 483 kts | 105° |
| 2026-05-04 11:46 | 6.89039 | 80.95839 | 35835 ft | 484 kts | 105° |
| 2026-05-04 11:47 | 6.87398 | 81.02407 | 35829 ft | 484 kts | 105° |
| 2026-05-04 11:47 | 6.85760 | 81.08936 | 35816 ft | 484 kts | 105° |
| 2026-05-04 11:48 | 6.84112 | 81.15503 | 35807 ft | 484 kts | 105° |
| 2026-05-04 11:48 | 6.82454 | 81.22113 | 35795 ft | 484 kts | 105° |
| 2026-05-04 11:49 | 6.80817 | 81.28632 | 35791 ft | 484 kts | 105° |
| 2026-05-04 11:49 | 6.79166 | 81.35203 | 35785 ft | 484 kts | 105° |
| 2026-05-04 11:50 | 6.77517 | 81.41767 | 35780 ft | 484 kts | 105° |
| 2026-05-04 11:50 | 6.75862 | 81.48339 | 35777 ft | 484 kts | 105° |
| 2026-05-04 11:51 | 6.74210 | 81.54905 | 35776 ft | 484 kts | 105° |
| 2026-05-04 11:51 | 6.72555 | 81.61478 | 35771 ft | 484 kts | 105° |
| 2026-05-04 11:52 | 6.70898 | 81.68055 | 35774 ft | 485 kts | 105° |
| 2026-05-04 11:52 | 6.69238 | 81.74640 | 35775 ft | 486 kts | 105° |
| 2026-05-04 11:53 | 6.67584 | 81.81187 | 35772 ft | 487 kts | 105° |
| 2026-05-04 11:53 | 6.65914 | 81.87799 | 35774 ft | 487 kts | 105° |
| 2026-05-04 11:55 | 6.59234 | 82.14272 | 35784 ft | 487 kts | 105° |
| 2026-05-04 11:56 | 6.57568 | 82.20875 | 35786 ft | 487 kts | 105° |
| 2026-05-04 11:56 | 6.55902 | 82.27471 | 35785 ft | 486 kts | 105° |
| 2026-05-04 11:57 | 6.54241 | 82.34051 | 35783 ft | 485 kts | 106° |
| 2026-05-04 11:57 | 6.52589 | 82.40581 | 35783 ft | 484 kts | 105° |
| 2026-05-04 11:58 | 6.50928 | 82.47144 | 35784 ft | 484 kts | 105° |
| 2026-05-04 11:58 | 6.49271 | 82.53694 | 35786 ft | 483 kts | 105° |
| 2026-05-04 11:59 | 6.47614 | 82.60240 | 35785 ft | 482 kts | 105° |
| 2026-05-04 11:59 | 6.45959 | 82.66774 | 35784 ft | 481 kts | 105° |
| 2026-05-04 12:00 | 6.44306 | 82.73292 | 35787 ft | 481 kts | 105° |
| 2026-05-04 12:00 | 6.42653 | 82.79804 | 35786 ft | 480 kts | 105° |
| 2026-05-04 12:01 | 6.41001 | 82.86307 | 35786 ft | 480 kts | 105° |
| 2026-05-04 12:02 | 6.35216 | 83.09070 | 35789 ft | 480 kts | 105° |
| 2026-05-04 12:03 | 6.33563 | 83.15569 | 35788 ft | 480 kts | 105° |
| 2026-05-04 12:03 | 6.31907 | 83.22070 | 35789 ft | 480 kts | 105° |
| 2026-05-04 12:04 | 6.30264 | 83.28522 | 35785 ft | 480 kts | 105° |
| 2026-05-04 12:04 | 6.28608 | 83.35021 | 35788 ft | 480 kts | 105° |
| 2026-05-04 12:05 | 6.26950 | 83.41524 | 35789 ft | 480 kts | 105° |
| 2026-05-04 12:05 | 6.25290 | 83.48031 | 35789 ft | 481 kts | 105° |
| 2026-05-04 12:06 | 6.23627 | 83.54541 | 35790 ft | 481 kts | 105° |
| 2026-05-04 12:06 | 6.21961 | 83.61059 | 35790 ft | 481 kts | 105° |
| 2026-05-04 12:07 | 6.20305 | 83.67538 | 35790 ft | 481 kts | 105° |
| 2026-05-04 12:07 | 6.18641 | 83.74050 | 35793 ft | 481 kts | 105° |
| 2026-05-04 12:08 | 6.16975 | 83.80563 | 35792 ft | 481 kts | 105° |
| 2026-05-04 12:08 | 6.15305 | 83.87086 | 35792 ft | 481 kts | 105° |
| 2026-05-04 12:09 | 6.13634 | 83.93609 | 35791 ft | 481 kts | 105° |
| 2026-05-04 12:09 | 6.11965 | 84.00126 | 35790 ft | 482 kts | 105° |
| 2026-05-04 12:10 | 6.10303 | 84.06602 | 35793 ft | 482 kts | 105° |
| 2026-05-04 12:10 | 6.08629 | 84.13119 | 35793 ft | 482 kts | 105° |
| 2026-05-04 12:11 | 6.06956 | 84.19634 | 35793 ft | 482 kts | 105° |
| 2026-05-04 12:11 | 6.05281 | 84.26157 | 35792 ft | 482 kts | 105° |
| 2026-05-04 12:12 | 6.03606 | 84.32676 | 35792 ft | 481 kts | 105° |
| 2026-05-04 12:12 | 6.01932 | 84.39185 | 35795 ft | 481 kts | 105° |
| 2026-05-04 12:14 | 5.95511 | 84.64116 | 35796 ft | 481 kts | 105° |
| 2026-05-04 12:15 | 5.93561 | 84.71681 | 35797 ft | 481 kts | 105° |
| 2026-05-04 12:15 | 5.92154 | 84.77136 | 35797 ft | 481 kts | 105° |
| 2026-05-04 12:16 | 5.90486 | 84.83597 | 35800 ft | 481 kts | 105° |
| 2026-05-04 12:16 | 5.88807 | 84.90100 | 35801 ft | 481 kts | 105° |
| 2026-05-04 12:17 | 5.87129 | 84.96596 | 35803 ft | 481 kts | 105° |
| 2026-05-04 12:17 | 5.85448 | 85.03097 | 35803 ft | 481 kts | 105° |
| 2026-05-04 12:18 | 5.83768 | 85.09590 | 35806 ft | 481 kts | 105° |
| 2026-05-04 12:18 | 5.82088 | 85.16084 | 35806 ft | 480 kts | 105° |
| 2026-05-04 12:19 | 5.80408 | 85.22575 | 35806 ft | 480 kts | 105° |
| 2026-05-04 12:19 | 5.78727 | 85.29063 | 35806 ft | 480 kts | 105° |
| 2026-05-04 12:20 | 5.77048 | 85.35544 | 35806 ft | 479 kts | 105° |
| 2026-05-04 12:20 | 5.75377 | 85.41988 | 35805 ft | 480 kts | 105° |
| 2026-05-04 12:21 | 5.73697 | 85.48463 | 35805 ft | 479 kts | 105° |
| 2026-05-04 12:21 | 5.72018 | 85.54933 | 35805 ft | 479 kts | 105° |
| 2026-05-04 12:22 | 5.70338 | 85.61401 | 35805 ft | 479 kts | 105° |
| 2026-05-04 12:22 | 5.68654 | 85.67883 | 35807 ft | 479 kts | 105° |
| 2026-05-04 12:23 | 5.66975 | 85.74349 | 35809 ft | 478 kts | 105° |
| 2026-05-04 12:23 | 5.65295 | 85.80805 | 35810 ft | 478 kts | 105° |
| 2026-05-04 12:24 | 5.63624 | 85.87226 | 35810 ft | 478 kts | 105° |
| 2026-05-04 12:24 | 5.61946 | 85.93675 | 35810 ft | 478 kts | 105° |
| 2026-05-04 12:25 | 5.60266 | 86.00126 | 35810 ft | 477 kts | 105° |
| 2026-05-04 12:25 | 5.58588 | 86.06571 | 35814 ft | 476 kts | 105° |
| 2026-05-04 12:26 | 5.56909 | 86.13008 | 35816 ft | 477 kts | 105° |
| 2026-05-04 12:26 | 5.55230 | 86.19448 | 35817 ft | 476 kts | 105° |
| 2026-05-04 12:27 | 5.53553 | 86.25873 | 35815 ft | 477 kts | 105° |
| 2026-05-04 12:27 | 5.51871 | 86.32317 | 35817 ft | 477 kts | 105° |
| 2026-05-04 12:28 | 5.50187 | 86.38766 | 35816 ft | 477 kts | 105° |
| 2026-05-04 12:28 | 5.48502 | 86.45215 | 35815 ft | 477 kts | 105° |
| 2026-05-04 12:29 | 5.46827 | 86.51624 | 35817 ft | 478 kts | 105° |
| 2026-05-04 12:29 | 5.45136 | 86.58088 | 35816 ft | 479 kts | 105° |
| 2026-05-04 12:30 | 5.43444 | 86.64556 | 35818 ft | 479 kts | 105° |
| 2026-05-04 12:30 | 5.41749 | 86.71032 | 35816 ft | 480 kts | 105° |
| 2026-05-04 12:31 | 5.40049 | 86.77523 | 35815 ft | 481 kts | 105° |
| 2026-05-04 12:31 | 5.38350 | 86.84008 | 35814 ft | 481 kts | 104° |
| 2026-05-04 12:32 | 5.35797 | 86.93745 | 35818 ft | 481 kts | 104° |
| 2026-05-04 12:33 | 5.34091 | 87.00248 | 35816 ft | 481 kts | 105° |
| 2026-05-04 12:33 | 5.32389 | 87.06737 | 35816 ft | 481 kts | 104° |
| 2026-05-04 12:34 | 5.30683 | 87.13234 | 35815 ft | 481 kts | 104° |
| 2026-05-04 12:34 | 5.28978 | 87.19724 | 35816 ft | 481 kts | 104° |
| 2026-05-04 12:35 | 5.27271 | 87.26219 | 35815 ft | 481 kts | 104° |
| 2026-05-04 12:35 | 5.25567 | 87.32703 | 35815 ft | 480 kts | 104° |
| 2026-05-04 12:36 | 5.23871 | 87.39151 | 35814 ft | 481 kts | 105° |
| 2026-05-04 12:36 | 5.22166 | 87.45632 | 35813 ft | 480 kts | 105° |
| 2026-05-04 12:37 | 5.20460 | 87.52112 | 35815 ft | 480 kts | 104° |
| 2026-05-04 12:37 | 5.18751 | 87.58600 | 35814 ft | 481 kts | 105° |
| 2026-05-04 12:38 | 5.17042 | 87.65087 | 35813 ft | 482 kts | 105° |
| 2026-05-04 12:38 | 5.15327 | 87.71591 | 35812 ft | 482 kts | 105° |
| 2026-05-04 12:39 | 5.13622 | 87.78057 | 35814 ft | 483 kts | 105° |
| 2026-05-04 12:39 | 5.11905 | 87.84564 | 35811 ft | 483 kts | 105° |
| 2026-05-04 12:40 | 5.10186 | 87.91080 | 35811 ft | 483 kts | 105° |
| 2026-05-04 12:40 | 5.08464 | 87.97602 | 35810 ft | 483 kts | 104° |
| 2026-05-04 12:41 | 5.06717 | 88.04115 | 35809 ft | 483 kts | 105° |
| 2026-05-04 12:41 | 5.04906 | 88.10602 | 35809 ft | 483 kts | 105° |
| 2026-05-04 12:42 | 5.03099 | 88.17096 | 35809 ft | 483 kts | 105° |
| 2026-05-04 12:42 | 5.01298 | 88.23593 | 35809 ft | 483 kts | 105° |
| 2026-05-04 12:43 | 4.99511 | 88.30043 | 35808 ft | 483 kts | 105° |
| 2026-05-04 12:43 | 4.97710 | 88.36539 | 35808 ft | 483 kts | 105° |
| 2026-05-04 12:44 | 4.95905 | 88.43051 | 35809 ft | 484 kts | 105° |
| 2026-05-04 12:44 | 4.94100 | 88.49558 | 35807 ft | 485 kts | 105° |
| 2026-05-04 12:45 | 4.92292 | 88.56073 | 35808 ft | 485 kts | 105° |
| 2026-05-04 12:45 | 4.90480 | 88.62596 | 35806 ft | 486 kts | 105° |
| 2026-05-04 12:46 | 4.88667 | 88.69126 | 35805 ft | 486 kts | 105° |
| 2026-05-04 12:46 | 4.86850 | 88.75661 | 35805 ft | 486 kts | 105° |
| 2026-05-04 12:47 | 4.85045 | 88.82152 | 35806 ft | 487 kts | 105° |
| 2026-05-04 12:47 | 4.83228 | 88.88686 | 35805 ft | 486 kts | 105° |
| 2026-05-04 12:48 | 4.81410 | 88.95219 | 35801 ft | 486 kts | 105° |
| 2026-05-04 12:48 | 4.79594 | 89.01745 | 35804 ft | 487 kts | 105° |
| 2026-05-04 12:49 | 4.77771 | 89.08290 | 35804 ft | 487 kts | 105° |
| 2026-05-04 12:49 | 4.75951 | 89.14825 | 35803 ft | 487 kts | 105° |
| 2026-05-04 12:50 | 4.74128 | 89.21365 | 35803 ft | 487 kts | 105° |
| 2026-05-04 12:50 | 4.72305 | 89.27905 | 35804 ft | 487 kts | 105° |
| 2026-05-04 12:51 | 4.70479 | 89.34453 | 35803 ft | 487 kts | 105° |
| 2026-05-04 12:51 | 4.68654 | 89.40993 | 35802 ft | 487 kts | 105° |
| 2026-05-04 12:52 | 4.66827 | 89.47540 | 35803 ft | 488 kts | 105° |
| 2026-05-04 12:52 | 4.65008 | 89.54053 | 35801 ft | 488 kts | 105° |
| 2026-05-04 12:53 | 4.63180 | 89.60600 | 35800 ft | 488 kts | 105° |
| 2026-05-04 12:53 | 4.61353 | 89.67139 | 35802 ft | 487 kts | 105° |
| 2026-05-04 12:54 | 4.59525 | 89.73682 | 35802 ft | 487 kts | 105° |
| 2026-05-04 12:54 | 4.57698 | 89.80217 | 35799 ft | 487 kts | 105° |
| 2026-05-04 12:55 | 4.55869 | 89.86751 | 35800 ft | 487 kts | 105° |
| 2026-05-04 12:55 | 4.54041 | 89.93284 | 35801 ft | 486 kts | 105° |
| 2026-05-04 12:56 | 4.52215 | 89.99811 | 35800 ft | 486 kts | 105° |
| 2026-05-04 12:56 | 4.50388 | 90.06338 | 35800 ft | 486 kts | 105° |
| 2026-05-04 12:57 | 4.48563 | 90.12851 | 35798 ft | 485 kts | 105° |
| 2026-05-04 12:57 | 4.46753 | 90.19310 | 35798 ft | 484 kts | 105° |
| 2026-05-04 12:58 | 4.44929 | 90.25813 | 35798 ft | 484 kts | 105° |
| 2026-05-04 12:58 | 4.43109 | 90.32302 | 35795 ft | 484 kts | 105° |
| 2026-05-04 12:59 | 4.41291 | 90.38785 | 35794 ft | 483 kts | 105° |
| 2026-05-04 12:59 | 4.39573 | 90.45289 | 35794 ft | 482 kts | 103° |
| 2026-05-04 13:00 | 4.37985 | 90.51810 | 35793 ft | 482 kts | 103° |
| 2026-05-04 13:00 | 4.36374 | 90.58325 | 35794 ft | 481 kts | 103° |
| 2026-05-04 13:01 | 4.34750 | 90.64827 | 35794 ft | 481 kts | 103° |
| 2026-05-04 13:01 | 4.33124 | 90.71324 | 35795 ft | 480 kts | 103° |
| 2026-05-04 13:02 | 4.31500 | 90.77810 | 35795 ft | 480 kts | 103° |
| 2026-05-04 13:02 | 4.30151 | 90.83197 | 35795 ft | 479 kts | 103° |
| 2026-05-04 13:03 | 4.28531 | 90.89663 | 35793 ft | 479 kts | 103° |
| 2026-05-04 13:03 | 4.26647 | 90.97185 | 35794 ft | 479 kts | 103° |
| 2026-05-04 13:04 | 4.25023 | 91.03660 | 35790 ft | 479 kts | 103° |
| 2026-05-04 13:04 | 4.23676 | 91.09034 | 35788 ft | 478 kts | 103° |
| 2026-05-04 13:05 | 4.22053 | 91.15501 | 35790 ft | 479 kts | 103° |
| 2026-05-04 13:05 | 4.20429 | 91.21974 | 35793 ft | 479 kts | 103° |
| 2026-05-04 13:06 | 4.18803 | 91.28449 | 35790 ft | 479 kts | 103° |
| 2026-05-04 13:06 | 4.17179 | 91.34917 | 35790 ft | 479 kts | 103° |
| 2026-05-04 13:07 | 4.15555 | 91.41383 | 35789 ft | 479 kts | 103° |
| 2026-05-04 13:07 | 4.13940 | 91.47810 | 35788 ft | 479 kts | 103° |
| 2026-05-04 13:08 | 4.12314 | 91.54277 | 35792 ft | 478 kts | 103° |
| 2026-05-04 13:08 | 4.10686 | 91.60749 | 35787 ft | 478 kts | 103° |
| 2026-05-04 13:09 | 4.09061 | 91.67208 | 35793 ft | 478 kts | 103° |
| 2026-05-04 13:09 | 4.07437 | 91.73660 | 35788 ft | 478 kts | 103° |
| 2026-05-04 13:10 | 4.05810 | 91.80124 | 35792 ft | 478 kts | 103° |
| 2026-05-04 13:10 | 4.04195 | 91.86533 | 35790 ft | 477 kts | 103° |
| 2026-05-04 13:11 | 4.02572 | 91.92976 | 35793 ft | 477 kts | 103° |
| 2026-05-04 13:11 | 4.00947 | 91.99425 | 35792 ft | 477 kts | 103° |
| 2026-05-04 13:12 | 3.99298 | 92.05859 | 35793 ft | 477 kts | 104° |
| 2026-05-04 13:12 | 3.97627 | 92.12284 | 35792 ft | 476 kts | 104° |
| 2026-05-04 13:13 | 3.95961 | 92.18711 | 35794 ft | 477 kts | 104° |
| 2026-05-04 13:13 | 3.94305 | 92.25104 | 35791 ft | 477 kts | 104° |
| 2026-05-04 13:14 | 3.92642 | 92.31528 | 35791 ft | 477 kts | 104° |
| 2026-05-04 13:14 | 3.90976 | 92.37958 | 35790 ft | 477 kts | 104° |
| 2026-05-04 13:15 | 3.89310 | 92.44389 | 35790 ft | 477 kts | 104° |
| 2026-05-04 13:15 | 3.87642 | 92.50821 | 35792 ft | 477 kts | 104° |
| 2026-05-04 13:16 | 3.85986 | 92.57206 | 35791 ft | 477 kts | 104° |
| 2026-05-04 13:16 | 3.84320 | 92.63629 | 35795 ft | 477 kts | 104° |
| 2026-05-04 13:17 | 3.82653 | 92.70055 | 35791 ft | 477 kts | 104° |
| 2026-05-04 13:17 | 3.80985 | 92.76479 | 35791 ft | 476 kts | 104° |
| 2026-05-04 13:18 | 3.79318 | 92.82901 | 35791 ft | 477 kts | 104° |
| 2026-05-04 13:18 | 3.77648 | 92.89329 | 35793 ft | 477 kts | 104° |
| 2026-05-04 13:19 | 3.75989 | 92.95713 | 35793 ft | 476 kts | 104° |
| 2026-05-04 13:19 | 3.74321 | 93.02132 | 35795 ft | 477 kts | 104° |
| 2026-05-04 13:20 | 3.72651 | 93.08556 | 35794 ft | 477 kts | 104° |
| 2026-05-04 13:20 | 3.70978 | 93.14987 | 35794 ft | 477 kts | 104° |
| 2026-05-04 13:21 | 3.69304 | 93.21420 | 35795 ft | 477 kts | 104° |
| 2026-05-04 13:21 | 3.67631 | 93.27848 | 35793 ft | 477 kts | 104° |
| 2026-05-04 13:22 | 3.65970 | 93.34232 | 35793 ft | 477 kts | 104° |
| 2026-05-04 13:22 | 3.64297 | 93.40655 | 35792 ft | 476 kts | 104° |
| 2026-05-04 13:23 | 3.62624 | 93.47078 | 35792 ft | 477 kts | 104° |
| 2026-05-04 13:23 | 3.60949 | 93.53509 | 35792 ft | 477 kts | 104° |
| 2026-05-04 13:24 | 3.59271 | 93.59944 | 35795 ft | 478 kts | 104° |
| 2026-05-04 13:24 | 3.57593 | 93.66383 | 35791 ft | 478 kts | 104° |
| 2026-05-04 13:25 | 3.55073 | 93.76045 | 35793 ft | 479 kts | 104° |
| 2026-05-04 13:25 | 3.53391 | 93.82490 | 35791 ft | 478 kts | 104° |
| 2026-05-04 13:26 | 3.51707 | 93.88944 | 35793 ft | 479 kts | 104° |
| 2026-05-04 13:26 | 3.50022 | 93.95396 | 35793 ft | 479 kts | 104° |
| 2026-05-04 13:27 | 3.48335 | 94.01855 | 35791 ft | 479 kts | 104° |
| 2026-05-04 13:27 | 3.46660 | 94.08268 | 35792 ft | 479 kts | 104° |
| 2026-05-04 13:28 | 3.44973 | 94.14724 | 35793 ft | 480 kts | 104° |
| 2026-05-04 13:28 | 3.43282 | 94.21191 | 35792 ft | 480 kts | 104° |
| 2026-05-04 13:29 | 3.41592 | 94.27656 | 35791 ft | 480 kts | 104° |
| 2026-05-04 13:29 | 3.39902 | 94.34116 | 35791 ft | 480 kts | 104° |
| 2026-05-04 13:30 | 3.38211 | 94.40579 | 35790 ft | 480 kts | 104° |
| 2026-05-04 13:30 | 3.36519 | 94.47045 | 35790 ft | 480 kts | 104° |
| 2026-05-04 13:31 | 3.34838 | 94.53469 | 35792 ft | 480 kts | 104° |
| 2026-05-04 13:31 | 3.33144 | 94.59937 | 35790 ft | 480 kts | 104° |
| 2026-05-04 13:32 | 3.31451 | 94.66401 | 35789 ft | 480 kts | 104° |
| 2026-05-04 13:32 | 3.29758 | 94.72862 | 35789 ft | 480 kts | 104° |
| 2026-05-04 13:33 | 3.28065 | 94.79327 | 35789 ft | 480 kts | 104° |
| 2026-05-04 13:33 | 3.26990 | 94.85905 | 35790 ft | 480 kts | 93° |
| 2026-05-04 13:34 | 3.27101 | 94.92542 | 35790 ft | 479 kts | 85° |
| 2026-05-04 13:34 | 3.27557 | 94.99202 | 35794 ft | 479 kts | 86° |
| 2026-05-04 13:35 | 3.28200 | 95.09196 | 35792 ft | 479 kts | 86° |
| 2026-05-04 13:36 | 3.28630 | 95.15852 | 35792 ft | 479 kts | 86° |
| 2026-05-04 13:36 | 3.29061 | 95.22522 | 35792 ft | 480 kts | 86° |
| 2026-05-04 13:37 | 3.29492 | 95.29183 | 35792 ft | 479 kts | 86° |
| 2026-05-04 13:37 | 3.29922 | 95.35842 | 35790 ft | 479 kts | 86° |
| 2026-05-04 13:38 | 3.30349 | 95.42463 | 35791 ft | 480 kts | 86° |
| 2026-05-04 13:38 | 3.30778 | 95.49118 | 35787 ft | 480 kts | 86° |
| 2026-05-04 13:39 | 3.31207 | 95.55779 | 35791 ft | 480 kts | 86° |
| 2026-05-04 13:39 | 3.31636 | 95.62446 | 35795 ft | 480 kts | 86° |
| 2026-05-04 13:40 | 3.32064 | 95.69108 | 35792 ft | 480 kts | 86° |
| 2026-05-04 13:40 | 3.32491 | 95.75774 | 35793 ft | 480 kts | 86° |
| 2026-05-04 13:41 | 3.32918 | 95.82442 | 35792 ft | 480 kts | 86° |
| 2026-05-04 13:41 | 3.33342 | 95.89068 | 35793 ft | 480 kts | 86° |
| 2026-05-04 13:42 | 3.33981 | 95.99078 | 35793 ft | 480 kts | 86° |
| 2026-05-04 13:42 | 3.34407 | 96.05742 | 35792 ft | 480 kts | 86° |
| 2026-05-04 13:43 | 3.34831 | 96.12404 | 35795 ft | 479 kts | 86° |
| 2026-05-04 13:43 | 3.35256 | 96.19068 | 35794 ft | 479 kts | 86° |
| 2026-05-04 13:44 | 3.35677 | 96.25687 | 35792 ft | 479 kts | 86° |
| 2026-05-04 13:44 | 3.36100 | 96.32339 | 35793 ft | 479 kts | 86° |
| 2026-05-04 13:45 | 3.36522 | 96.38994 | 35791 ft | 478 kts | 86° |
| 2026-05-04 13:45 | 3.36944 | 96.45636 | 35793 ft | 478 kts | 86° |
| 2026-05-04 13:46 | 3.37364 | 96.52268 | 35793 ft | 477 kts | 86° |
| 2026-05-04 13:46 | 3.37783 | 96.58895 | 35791 ft | 476 kts | 86° |
| 2026-05-04 13:47 | 3.38199 | 96.65478 | 35793 ft | 476 kts | 86° |
| 2026-05-04 13:47 | 3.38617 | 96.72084 | 35793 ft | 475 kts | 86° |
| 2026-05-04 13:48 | 3.39032 | 96.78673 | 35796 ft | 475 kts | 86° |
| 2026-05-04 13:48 | 3.39448 | 96.85270 | 35805 ft | 475 kts | 86° |
| 2026-05-04 13:49 | 3.39864 | 96.91878 | 35809 ft | 476 kts | 86° |
| 2026-05-04 13:49 | 3.40280 | 96.98488 | 35816 ft | 476 kts | 86° |
| 2026-05-04 13:50 | 3.40696 | 97.05108 | 35830 ft | 476 kts | 86° |
| 2026-05-04 13:50 | 3.41111 | 97.11719 | 35841 ft | 476 kts | 86° |
| 2026-05-04 13:51 | 3.41526 | 97.18343 | 35853 ft | 477 kts | 86° |
| 2026-05-04 13:51 | 3.41940 | 97.24971 | 35869 ft | 477 kts | 86° |
| 2026-05-04 13:52 | 3.42560 | 97.34863 | 35883 ft | 477 kts | 86° |
| 2026-05-04 13:53 | 3.42972 | 97.41487 | 35891 ft | 477 kts | 86° |
| 2026-05-04 13:53 | 3.43386 | 97.48109 | 35898 ft | 477 kts | 86° |
| 2026-05-04 13:54 | 3.43836 | 97.56976 | 35900 ft | 477 kts | 91° |
| 2026-05-04 13:54 | 3.43114 | 97.63516 | 35900 ft | 477 kts | 102° |
| 2026-05-04 13:55 | 3.42300 | 97.66731 | 35896 ft | 477 kts | 107° |
| 2026-05-04 13:55 | 3.39301 | 97.76247 | 35891 ft | 477 kts | 107° |
| 2026-05-04 13:56 | 3.37331 | 97.82590 | 35881 ft | 477 kts | 107° |
| 2026-05-04 13:57 | 3.34371 | 97.92103 | 35866 ft | 477 kts | 107° |
| 2026-05-04 13:58 | 3.30418 | 98.04788 | 35851 ft | 477 kts | 107° |
| 2026-05-04 13:58 | 3.27450 | 98.14308 | 35850 ft | 478 kts | 107° |
| 2026-05-04 13:59 | 3.25485 | 98.20612 | 35855 ft | 478 kts | 107° |
| 2026-05-04 14:00 | 3.22512 | 98.30144 | 35852 ft | 478 kts | 107° |
| 2026-05-04 14:00 | 3.19541 | 98.39665 | 35858 ft | 478 kts | 107° |
| 2026-05-04 14:01 | 3.17557 | 98.46020 | 35859 ft | 478 kts | 107° |
| 2026-05-04 14:02 | 3.14582 | 98.55550 | 35857 ft | 479 kts | 107° |
| 2026-05-04 14:02 | 3.12594 | 98.61913 | 35852 ft | 479 kts | 107° |
| 2026-05-04 14:03 | 3.10602 | 98.68293 | 35856 ft | 480 kts | 107° |
| 2026-05-04 14:03 | 3.08610 | 98.74669 | 35852 ft | 480 kts | 107° |
| 2026-05-04 14:04 | 3.05628 | 98.84213 | 35844 ft | 481 kts | 107° |
| 2026-05-04 14:04 | 3.03631 | 98.90602 | 35844 ft | 481 kts | 107° |
| 2026-05-04 14:05 | 3.00639 | 99.00172 | 35846 ft | 480 kts | 107° |
| 2026-05-04 14:06 | 2.98645 | 99.06546 | 35844 ft | 480 kts | 107° |
| 2026-05-04 14:06 | 2.96654 | 99.12911 | 35839 ft | 479 kts | 107° |
| 2026-05-04 14:07 | 2.94665 | 99.19267 | 35837 ft | 478 kts | 107° |
| 2026-05-04 14:07 | 2.92677 | 99.25619 | 35832 ft | 478 kts | 107° |
| 2026-05-04 14:08 | 2.90701 | 99.31919 | 35833 ft | 478 kts | 107° |
| 2026-05-04 14:08 | 2.88700 | 99.38259 | 35834 ft | 478 kts | 107° |
| 2026-05-04 14:09 | 2.85696 | 99.47777 | 35829 ft | 478 kts | 107° |
| 2026-05-04 14:10 | 2.82694 | 99.57293 | 35827 ft | 478 kts | 107° |
| 2026-05-04 14:10 | 2.80694 | 99.63632 | 35824 ft | 478 kts | 107° |
| 2026-05-04 14:11 | 2.78695 | 99.69964 | 35826 ft | 478 kts | 107° |
| 2026-05-04 14:11 | 2.75709 | 99.79422 | 35930 ft | 477 kts | 107° |
| 2026-05-04 14:12 | 2.74710 | 99.82585 | 36051 ft | 477 kts | 107° |
| 2026-05-04 14:12 | 2.73711 | 99.85749 | 36166 ft | 476 kts | 107° |
| 2026-05-04 14:12 | 2.71715 | 99.92068 | 36418 ft | 475 kts | 107° |
| 2026-05-04 14:13 | 2.70723 | 99.95218 | 36522 ft | 475 kts | 107° |
| 2026-05-04 14:13 | 2.69744 | 99.98372 | 36662 ft | 475 kts | 107° |
| 2026-05-04 14:13 | 2.68769 | 100.01527 | 36826 ft | 473 kts | 107° |
| 2026-05-04 14:13 | 2.67805 | 100.04649 | 37201 ft | 468 kts | 107° |
| 2026-05-04 14:14 | 2.66839 | 100.07772 | 37173 ft | 472 kts | 107° |
| 2026-05-04 14:14 | 2.64886 | 100.14073 | 36688 ft | 473 kts | 107° |
| 2026-05-04 14:14 | 2.63924 | 100.17177 | 36445 ft | 473 kts | 107° |
| 2026-05-04 14:15 | 2.61972 | 100.23468 | 35984 ft | 475 kts | 107° |
| 2026-05-04 14:15 | 2.60013 | 100.29779 | 35900 ft | 475 kts | 107° |
| 2026-05-04 14:16 | 2.57070 | 100.39260 | 35901 ft | 476 kts | 107° |
| 2026-05-04 14:17 | 2.54129 | 100.48731 | 35899 ft | 475 kts | 107° |
| 2026-05-04 14:18 | 2.51184 | 100.58214 | 35901 ft | 476 kts | 107° |
| 2026-05-04 14:19 | 2.47256 | 100.70858 | 35898 ft | 476 kts | 107° |
| 2026-05-04 14:19 | 2.45303 | 100.77143 | 35900 ft | 476 kts | 107° |
| 2026-05-04 14:20 | 2.43335 | 100.83476 | 35899 ft | 477 kts | 106° |
| 2026-05-04 14:20 | 2.41366 | 100.89807 | 35900 ft | 477 kts | 106° |
| 2026-05-04 14:21 | 2.38414 | 100.99304 | 35902 ft | 477 kts | 106° |
| 2026-05-04 14:21 | 2.36443 | 101.05642 | 35904 ft | 477 kts | 106° |
| 2026-05-04 14:22 | 2.34473 | 101.11974 | 35902 ft | 477 kts | 106° |
| 2026-05-04 14:22 | 2.32502 | 101.18310 | 35904 ft | 477 kts | 106° |
| 2026-05-04 14:23 | 2.29545 | 101.27813 | 35903 ft | 477 kts | 106° |
| 2026-05-04 14:24 | 2.27586 | 101.34106 | 35904 ft | 477 kts | 106° |
| 2026-05-04 14:24 | 2.25613 | 101.40446 | 35910 ft | 477 kts | 106° |
| 2026-05-04 14:25 | 2.23644 | 101.46772 | 35914 ft | 476 kts | 106° |
| 2026-05-04 14:25 | 2.20662 | 101.56236 | 35909 ft | 476 kts | 109° |
| 2026-05-04 14:26 | 2.18096 | 101.62331 | 35911 ft | 476 kts | 112° |
| 2026-05-04 14:26 | 2.15485 | 101.68409 | 35909 ft | 475 kts | 112° |
| 2026-05-04 14:27 | 2.12896 | 101.74451 | 35912 ft | 475 kts | 112° |
| 2026-05-04 14:27 | 2.10293 | 101.80524 | 35911 ft | 475 kts | 112° |
| 2026-05-04 14:28 | 2.07690 | 101.86595 | 35911 ft | 475 kts | 112° |
| 2026-05-04 14:28 | 2.05085 | 101.92667 | 35914 ft | 475 kts | 112° |
| 2026-05-04 14:29 | 1.99886 | 102.04787 | 35916 ft | 474 kts | 112° |
| 2026-05-04 14:30 | 1.97291 | 102.10835 | 35918 ft | 473 kts | 112° |
| 2026-05-04 14:31 | 1.93401 | 102.19900 | 35914 ft | 472 kts | 112° |
| 2026-05-04 14:32 | 1.88239 | 102.31926 | 35909 ft | 472 kts | 112° |
| 2026-05-04 14:32 | 1.85651 | 102.37955 | 35905 ft | 472 kts | 112° |
| 2026-05-04 14:33 | 1.83063 | 102.43982 | 35901 ft | 471 kts | 112° |
| 2026-05-04 14:33 | 1.80478 | 102.50002 | 35902 ft | 471 kts | 112° |
| 2026-05-04 14:34 | 1.77893 | 102.56023 | 35901 ft | 471 kts | 112° |
| 2026-05-04 14:34 | 1.75308 | 102.62042 | 35899 ft | 471 kts | 112° |
| 2026-05-04 14:35 | 1.72725 | 102.68055 | 35898 ft | 471 kts | 112° |
| 2026-05-04 14:35 | 1.70137 | 102.74081 | 35898 ft | 471 kts | 112° |
| 2026-05-04 14:36 | 1.67569 | 102.80058 | 35893 ft | 471 kts | 112° |
| 2026-05-04 14:36 | 1.64986 | 102.86070 | 35893 ft | 471 kts | 112° |
| 2026-05-04 14:37 | 1.62400 | 102.92088 | 35889 ft | 471 kts | 112° |
| 2026-05-04 14:37 | 1.59817 | 102.98099 | 35887 ft | 471 kts | 112° |
| 2026-05-04 14:38 | 1.57233 | 103.04111 | 35887 ft | 471 kts | 112° |
| 2026-05-04 14:38 | 1.54648 | 103.10127 | 35888 ft | 471 kts | 112° |
| 2026-05-04 14:39 | 1.52083 | 103.16146 | 35887 ft | 471 kts | 112° |
| 2026-05-04 14:39 | 1.49520 | 103.22170 | 35882 ft | 471 kts | 112° |
| 2026-05-04 14:40 | 1.46102 | 103.30192 | 35885 ft | 471 kts | 112° |
| 2026-05-04 14:40 | 1.43095 | 103.37227 | 35885 ft | 471 kts | 112° |
| 2026-05-04 14:41 | 1.40518 | 103.43195 | 35885 ft | 471 kts | 112° |
| 2026-05-04 14:42 | 1.35336 | 103.55212 | 35884 ft | 471 kts | 112° |
| 2026-05-04 14:42 | 1.33165 | 103.60249 | 35890 ft | 471 kts | 112° |
| 2026-05-04 14:43 | 1.30572 | 103.66251 | 35896 ft | 470 kts | 112° |
| 2026-05-04 14:43 | 1.27965 | 103.72258 | 35898 ft | 470 kts | 113° |
| 2026-05-04 14:44 | 1.25379 | 103.78220 | 35904 ft | 470 kts | 113° |
| 2026-05-04 14:44 | 1.22778 | 103.84218 | 35906 ft | 470 kts | 113° |
| 2026-05-04 14:45 | 1.20058 | 103.90160 | 35904 ft | 470 kts | 115° |
| 2026-05-04 14:45 | 1.17159 | 103.96029 | 35902 ft | 470 kts | 116° |
| 2026-05-04 14:46 | 1.14289 | 104.01909 | 35912 ft | 470 kts | 115° |
| 2026-05-04 14:46 | 1.11459 | 104.07758 | 35912 ft | 470 kts | 115° |
| 2026-05-04 14:47 | 1.08611 | 104.13651 | 35915 ft | 470 kts | 115° |
| 2026-05-04 14:47 | 1.04846 | 104.18961 | 35906 ft | 471 kts | 135° |
| 2026-05-04 14:48 | 0.99486 | 104.22711 | 35904 ft | 474 kts | 154° |
| 2026-05-04 14:48 | 0.94058 | 104.26346 | 35910 ft | 470 kts | 134° |
| 2026-05-04 14:49 | 0.91984 | 104.28863 | 35906 ft | 469 kts | 122° |
| 2026-05-04 14:49 | 0.90453 | 104.31730 | 35901 ft | 469 kts | 111° |
| 2026-05-04 14:49 | 0.89521 | 104.34841 | 35896 ft | 469 kts | 100° |
| 2026-05-04 14:49 | 0.89226 | 104.38082 | 35889 ft | 469 kts | 89° |
| 2026-05-04 14:50 | 0.90136 | 104.44541 | 35907 ft | 470 kts | 83° |
| 2026-05-04 14:50 | 0.90301 | 104.51058 | 35903 ft | 470 kts | 95° |
| 2026-05-04 14:51 | 0.89195 | 104.57494 | 35910 ft | 470 kts | 101° |
| 2026-05-04 14:51 | 0.87886 | 104.63866 | 35911 ft | 471 kts | 102° |
| 2026-05-04 14:52 | 0.86580 | 104.70282 | 35915 ft | 472 kts | 101° |
| 2026-05-04 14:52 | 0.85283 | 104.76720 | 35920 ft | 472 kts | 101° |
| 2026-05-04 14:53 | 0.83988 | 104.83158 | 35928 ft | 473 kts | 101° |
| 2026-05-04 14:53 | 0.82693 | 104.89598 | 35933 ft | 473 kts | 101° |
| 2026-05-04 14:54 | 0.81395 | 104.96051 | 35934 ft | 473 kts | 101° |
| 2026-05-04 14:54 | 0.80096 | 105.02508 | 35932 ft | 474 kts | 101° |
| 2026-05-04 14:55 | 0.78796 | 105.08969 | 35932 ft | 474 kts | 101° |
| 2026-05-04 14:55 | 0.77493 | 105.15444 | 35934 ft | 475 kts | 101° |
| 2026-05-04 14:56 | 0.76200 | 105.21873 | 35932 ft | 475 kts | 101° |
| 2026-05-04 14:56 | 0.74895 | 105.28354 | 35933 ft | 476 kts | 101° |
| 2026-05-04 14:57 | 0.73590 | 105.34841 | 35936 ft | 476 kts | 101° |
| 2026-05-04 14:57 | 0.72282 | 105.41339 | 35935 ft | 477 kts | 101° |
| 2026-05-04 14:58 | 0.72225 | 105.41623 | 35933 ft | 477 kts | 101° |
| 2026-05-04 14:59 | 0.72171 | 105.41894 | 35936 ft | 477 kts | 101° |
| 2026-05-04 15:00 | 0.70794 | 105.48735 | 35936 ft | 477 kts | 101° |
| 2026-05-04 15:00 | 0.69484 | 105.55244 | 35938 ft | 477 kts | 101° |
| 2026-05-04 15:01 | 0.69265 | 105.56332 | 35935 ft | 477 kts | 101° |
| 2026-05-04 15:01 | 0.68639 | 105.59447 | 35939 ft | 477 kts | 101° |
| 2026-05-04 15:02 | 0.67330 | 105.65953 | 35937 ft | 478 kts | 101° |
| 2026-05-04 15:02 | 0.66020 | 105.72467 | 35939 ft | 478 kts | 101° |
| 2026-05-04 15:03 | 0.65919 | 105.72969 | 35938 ft | 478 kts | 101° |
| 2026-05-04 15:05 | 0.65240 | 105.76347 | 35943 ft | 478 kts | 101° |
| 2026-05-04 15:06 | 0.63932 | 105.82851 | 35941 ft | 478 kts | 101° |
| 2026-05-04 15:07 | 0.62448 | 105.90224 | 35941 ft | 477 kts | 101° |
| 2026-05-04 15:07 | 0.61140 | 105.96728 | 35944 ft | 477 kts | 101° |
| 2026-05-04 15:08 | 0.59839 | 106.03193 | 35942 ft | 477 kts | 101° |
| 2026-05-04 15:08 | 0.58531 | 106.09690 | 35941 ft | 477 kts | 101° |
| 2026-05-04 15:09 | 0.57226 | 106.16175 | 35938 ft | 476 kts | 101° |
| 2026-05-04 15:09 | 0.55919 | 106.22671 | 35940 ft | 476 kts | 101° |
| 2026-05-04 15:10 | 0.53960 | 106.32407 | 35928 ft | 476 kts | 101° |
| 2026-05-04 15:11 | 0.52000 | 106.42146 | 35928 ft | 477 kts | 101° |
| 2026-05-04 15:11 | 0.50693 | 106.48641 | 35941 ft | 477 kts | 101° |
| 2026-05-04 15:12 | 0.49386 | 106.55133 | 35936 ft | 477 kts | 101° |
| 2026-05-04 15:12 | 0.48088 | 106.61583 | 35926 ft | 477 kts | 101° |
| 2026-05-04 15:13 | 0.46780 | 106.68081 | 35929 ft | 477 kts | 101° |
| 2026-05-04 15:13 | 0.45464 | 106.74621 | 35943 ft | 477 kts | 101° |
| 2026-05-04 15:14 | 0.44155 | 106.81123 | 35929 ft | 477 kts | 101° |
| 2026-05-04 15:14 | 0.42855 | 106.87584 | 35923 ft | 478 kts | 101° |
| 2026-05-04 15:15 | 0.41544 | 106.94095 | 35944 ft | 477 kts | 101° |
| 2026-05-04 15:15 | 0.40223 | 107.00601 | 35945 ft | 477 kts | 101° |
| 2026-05-04 15:16 | 0.38238 | 107.10362 | 35926 ft | 477 kts | 101° |
| 2026-05-04 15:17 | 0.36257 | 107.20115 | 35947 ft | 477 kts | 101° |
| 2026-05-04 15:17 | 0.34278 | 107.29852 | 35935 ft | 477 kts | 101° |
| 2026-05-04 15:18 | 0.32967 | 107.36307 | 35936 ft | 477 kts | 101° |
| 2026-05-04 15:19 | 0.30990 | 107.46037 | 35947 ft | 476 kts | 101° |
| 2026-05-04 15:19 | 0.29014 | 107.55761 | 35934 ft | 476 kts | 101° |
| 2026-05-04 15:20 | 0.27698 | 107.62238 | 35932 ft | 475 kts | 101° |
| 2026-05-04 15:20 | 0.26385 | 107.68699 | 35946 ft | 475 kts | 101° |
| 2026-05-04 15:21 | 0.25071 | 107.75166 | 35928 ft | 474 kts | 101° |
| 2026-05-04 15:22 | 0.23102 | 107.84857 | 35938 ft | 474 kts | 101° |
| 2026-05-04 15:22 | 0.21133 | 107.94546 | 35939 ft | 474 kts | 101° |
| 2026-05-04 15:23 | 0.19828 | 108.00969 | 35935 ft | 474 kts | 101° |
| 2026-05-04 15:23 | 0.18513 | 108.07437 | 35940 ft | 475 kts | 101° |
| 2026-05-04 15:24 | 0.15884 | 108.20378 | 35931 ft | 475 kts | 101° |
| 2026-05-04 15:25 | 0.14569 | 108.26846 | 35934 ft | 475 kts | 101° |
| 2026-05-04 15:26 | 0.12594 | 108.36567 | 35939 ft | 476 kts | 101° |
| 2026-05-04 15:26 | 0.10624 | 108.46258 | 35937 ft | 477 kts | 101° |
| 2026-05-04 15:27 | 0.08645 | 108.55993 | 35944 ft | 477 kts | 101° |
| 2026-05-04 15:28 | 0.06878 | 108.64690 | 35944 ft | 477 kts | 101° |
| 2026-05-04 15:29 | 0.04904 | 108.74400 | 35932 ft | 478 kts | 101° |
| 2026-05-04 15:30 | 0.00279 | 108.97155 | 35942 ft | 477 kts | 101° |
| 2026-05-04 15:31 | -0.01701 | 109.06899 | 35931 ft | 477 kts | 101° |
| 2026-05-04 15:32 | -0.04998 | 109.23120 | 35918 ft | 476 kts | 101° |
| 2026-05-04 15:34 | -0.09194 | 109.39014 | 35917 ft | 476 kts | 114° |
| 2026-05-04 15:34 | -0.14224 | 109.47575 | 35920 ft | 476 kts | 121° |
| 2026-05-04 15:35 | -0.19480 | 109.55999 | 35900 ft | 476 kts | 121° |
| 2026-05-04 15:36 | -0.24737 | 109.64426 | 35898 ft | 476 kts | 121° |
| 2026-05-04 15:36 | -0.28243 | 109.70042 | 35918 ft | 476 kts | 121° |
| 2026-05-04 15:37 | -0.31751 | 109.75659 | 35923 ft | 476 kts | 121° |
| 2026-05-04 15:37 | -0.35257 | 109.81276 | 35917 ft | 476 kts | 121° |
| 2026-05-04 15:38 | -0.38764 | 109.86894 | 35901 ft | 476 kts | 121° |
| 2026-05-04 15:38 | -0.42275 | 109.92517 | 35897 ft | 476 kts | 121° |
| 2026-05-04 15:39 | -0.45761 | 109.98103 | 35921 ft | 476 kts | 121° |
| 2026-05-04 15:40 | -0.51021 | 110.06529 | 35921 ft | 476 kts | 121° |
| 2026-05-04 15:40 | -0.54527 | 110.12145 | 35907 ft | 476 kts | 121° |
| 2026-05-04 15:41 | -0.58033 | 110.17763 | 35904 ft | 476 kts | 121° |
| 2026-05-04 15:41 | -0.61540 | 110.23381 | 35926 ft | 476 kts | 121° |
| 2026-05-04 15:42 | -0.65044 | 110.28995 | 35933 ft | 476 kts | 121° |
| 2026-05-04 15:42 | -0.68548 | 110.34609 | 35930 ft | 476 kts | 121° |
| 2026-05-04 15:43 | -0.72032 | 110.40191 | 35914 ft | 476 kts | 121° |
| 2026-05-04 15:43 | -0.75536 | 110.45806 | 35913 ft | 476 kts | 121° |
| 2026-05-04 15:44 | -0.79041 | 110.51422 | 35936 ft | 476 kts | 121° |
| 2026-05-04 15:44 | -0.82550 | 110.57045 | 35938 ft | 476 kts | 121° |
| 2026-05-04 15:45 | -0.86060 | 110.62671 | 35922 ft | 477 kts | 121° |
| 2026-05-04 15:45 | -0.89570 | 110.68294 | 35920 ft | 477 kts | 121° |
| 2026-05-04 15:46 | -0.93089 | 110.73913 | 35931 ft | 477 kts | 121° |
| 2026-05-04 15:46 | -0.96634 | 110.79517 | 35948 ft | 477 kts | 121° |
| 2026-05-04 15:47 | -1.00179 | 110.85125 | 35952 ft | 477 kts | 121° |
| 2026-05-04 15:47 | -1.03721 | 110.90735 | 35935 ft | 477 kts | 121° |
| 2026-05-04 15:48 | -1.07257 | 110.96338 | 35938 ft | 477 kts | 121° |
| 2026-05-04 15:48 | -1.12546 | 111.04717 | 35958 ft | 477 kts | 121° |
| 2026-05-04 15:49 | -1.16084 | 111.10322 | 35968 ft | 477 kts | 121° |
| 2026-05-04 15:49 | -1.19620 | 111.15927 | 35945 ft | 477 kts | 121° |
| 2026-05-04 15:50 | -1.23161 | 111.21538 | 35939 ft | 477 kts | 121° |
| 2026-05-04 15:50 | -1.26699 | 111.27144 | 35951 ft | 477 kts | 121° |
| 2026-05-04 15:51 | -1.30235 | 111.32749 | 35967 ft | 477 kts | 121° |
| 2026-05-04 15:51 | -1.33773 | 111.38356 | 35949 ft | 477 kts | 121° |
| 2026-05-04 15:52 | -1.37316 | 111.43972 | 35951 ft | 477 kts | 121° |
| 2026-05-04 15:52 | -1.40857 | 111.49586 | 35969 ft | 477 kts | 121° |
| 2026-05-04 15:53 | -1.44399 | 111.55201 | 35956 ft | 478 kts | 121° |
| 2026-05-04 15:53 | -1.47921 | 111.60786 | 35948 ft | 478 kts | 121° |
| 2026-05-04 15:54 | -1.51459 | 111.66417 | 35953 ft | 478 kts | 121° |
| 2026-05-04 15:54 | -1.54996 | 111.72048 | 35968 ft | 478 kts | 121° |
| 2026-05-04 15:55 | -1.58535 | 111.77679 | 35961 ft | 478 kts | 121° |
| 2026-05-04 15:55 | -1.62048 | 111.83270 | 35948 ft | 478 kts | 121° |
| 2026-05-04 15:56 | -1.65610 | 111.88939 | 35949 ft | 478 kts | 121° |
| 2026-05-04 15:56 | -1.69127 | 111.94538 | 35970 ft | 478 kts | 121° |
| 2026-05-04 15:57 | -1.72666 | 112.00172 | 35952 ft | 478 kts | 121° |
| 2026-05-04 15:57 | -1.76202 | 112.05800 | 35937 ft | 478 kts | 121° |
| 2026-05-04 15:58 | -1.79732 | 112.11421 | 35961 ft | 477 kts | 121° |
| 2026-05-04 15:58 | -1.83260 | 112.17038 | 35961 ft | 477 kts | 121° |
| 2026-05-04 15:59 | -1.86784 | 112.22649 | 35939 ft | 477 kts | 121° |
| 2026-05-04 15:59 | -1.90305 | 112.28257 | 35942 ft | 476 kts | 121° |
| 2026-05-04 16:00 | -1.93827 | 112.33866 | 35956 ft | 475 kts | 121° |
| 2026-05-04 16:00 | -1.97318 | 112.39426 | 35953 ft | 475 kts | 121° |
| 2026-05-04 16:01 | -2.00828 | 112.45018 | 35933 ft | 475 kts | 121° |
| 2026-05-04 16:01 | -2.04332 | 112.50599 | 35936 ft | 474 kts | 121° |
| 2026-05-04 16:02 | -2.07837 | 112.56184 | 35940 ft | 473 kts | 121° |
| 2026-05-04 16:03 | -2.13086 | 112.64548 | 35933 ft | 473 kts | 121° |
| 2026-05-04 16:03 | -2.16587 | 112.70127 | 35933 ft | 473 kts | 121° |
| 2026-05-04 16:04 | -2.20086 | 112.75704 | 35946 ft | 473 kts | 121° |
| 2026-05-04 16:04 | -2.25338 | 112.84076 | 35927 ft | 474 kts | 121° |
| 2026-05-04 16:05 | -2.28818 | 112.89624 | 35939 ft | 474 kts | 121° |
| 2026-05-04 16:06 | -2.34080 | 112.98013 | 35931 ft | 475 kts | 121° |
| 2026-05-04 16:07 | -2.41100 | 113.09209 | 35928 ft | 475 kts | 121° |
| 2026-05-04 16:08 | -2.48127 | 113.20417 | 35943 ft | 475 kts | 121° |
| 2026-05-04 16:09 | -2.56889 | 113.34397 | 35927 ft | 476 kts | 121° |
| 2026-05-04 16:10 | -2.63918 | 113.45616 | 35938 ft | 476 kts | 121° |
| 2026-05-04 16:11 | -2.70949 | 113.56841 | 35915 ft | 476 kts | 121° |
| 2026-05-04 16:12 | -2.81503 | 113.73695 | 35912 ft | 477 kts | 121° |
| 2026-05-04 16:13 | -2.88515 | 113.84896 | 35911 ft | 476 kts | 121° |
| 2026-05-04 16:14 | -2.95549 | 113.96136 | 35900 ft | 476 kts | 121° |
| 2026-05-04 16:16 | -3.03747 | 114.09240 | 35902 ft | 477 kts | 121° |
| 2026-05-04 16:17 | -3.12544 | 114.23308 | 35898 ft | 477 kts | 121° |
| 2026-05-04 16:18 | -3.19558 | 114.34527 | 35892 ft | 477 kts | 121° |
| 2026-05-04 16:19 | -3.28356 | 114.48605 | 35886 ft | 477 kts | 121° |
| 2026-05-04 16:20 | -3.37151 | 114.62684 | 35896 ft | 477 kts | 121° |
| 2026-05-04 16:22 | -3.44561 | 114.77405 | 35885 ft | 475 kts | 104° |
| 2026-05-04 16:23 | -3.48803 | 114.96786 | 35887 ft | 475 kts | 102° |
| 2026-05-04 16:25 | -3.53002 | 115.16164 | 35910 ft | 473 kts | 101° |
| 2026-05-04 16:26 | -3.57861 | 115.38620 | 35912 ft | 472 kts | 102° |
| 2026-05-04 16:28 | -3.61329 | 115.54664 | 35900 ft | 472 kts | 102° |
| 2026-05-04 16:29 | -3.66185 | 115.77151 | 35910 ft | 472 kts | 102° |
| 2026-05-04 16:31 | -3.69644 | 115.93190 | 35916 ft | 473 kts | 102° |
| 2026-05-04 16:32 | -3.73805 | 116.12500 | 35914 ft | 473 kts | 102° |
| 2026-05-04 16:33 | -3.76577 | 116.25380 | 35907 ft | 473 kts | 102° |
| 2026-05-04 16:34 | -3.78648 | 116.35004 | 35905 ft | 474 kts | 102° |
| 2026-05-04 16:35 | -3.82809 | 116.54359 | 35906 ft | 474 kts | 102° |
| 2026-05-04 16:36 | -3.84888 | 116.64037 | 35906 ft | 474 kts | 102° |
| 2026-05-04 16:37 | -3.86967 | 116.73723 | 35907 ft | 475 kts | 102° |
| 2026-05-04 16:38 | -3.89742 | 116.86656 | 35911 ft | 475 kts | 102° |
| 2026-05-04 16:39 | -3.93200 | 117.02791 | 35909 ft | 475 kts | 102° |
| 2026-05-04 16:40 | -3.97439 | 117.15196 | 35897 ft | 475 kts | 126° |
| 2026-05-04 16:41 | -4.02116 | 117.19822 | 35899 ft | 475 kts | 145° |
| 2026-05-04 16:41 | -4.11354 | 117.23218 | 35906 ft | 478 kts | 174° |
| 2026-05-04 16:42 | -4.21297 | 117.22441 | 35902 ft | 479 kts | 186° |
| 2026-05-04 16:43 | -4.27919 | 117.21643 | 35904 ft | 479 kts | 186° |
| 2026-05-04 16:43 | -4.37850 | 117.20461 | 35903 ft | 479 kts | 186° |
| 2026-05-04 16:45 | -4.57683 | 117.18101 | 35901 ft | 479 kts | 186° |
| 2026-05-04 16:46 | -4.74243 | 117.16129 | 35903 ft | 479 kts | 186° |
| 2026-05-04 16:47 | -4.80865 | 117.15340 | 35577 ft | 479 kts | 186° |
| 2026-05-04 16:47 | -4.87509 | 117.14547 | 35109 ft | 481 kts | 185° |
| 2026-05-04 16:48 | -4.97476 | 117.13359 | 34417 ft | 481 kts | 185° |
| 2026-05-04 16:48 | -5.00756 | 117.12966 | 34278 ft | 468 kts | 185° |
| 2026-05-04 16:49 | -5.07057 | 117.12212 | 34010 ft | 446 kts | 185° |
| 2026-05-04 16:49 | -5.13177 | 117.11484 | 33515 ft | 443 kts | 185° |
| 2026-05-04 16:50 | -5.19424 | 117.10743 | 33024 ft | 461 kts | 185° |
| 2026-05-04 16:50 | -5.22095 | 117.10424 | 32811 ft | 459 kts | 185° |
| 2026-05-04 16:51 | -5.23910 | 117.10207 | 32678 ft | 456 kts | 185° |
| 2026-05-04 16:52 | -5.30162 | 117.09458 | 32182 ft | 450 kts | 185° |
| 2026-05-04 16:52 | -5.33272 | 117.09086 | 31941 ft | 450 kts | 185° |
| 2026-05-04 16:53 | -5.39438 | 117.08710 | 31465 ft | 445 kts | 172° |
| 2026-05-04 16:53 | -5.47659 | 117.12408 | 30779 ft | 434 kts | 135° |
| 2026-05-04 16:54 | -5.49619 | 117.14698 | 30549 ft | 432 kts | 123° |
| 2026-05-04 16:55 | -5.51264 | 117.26150 | 29605 ft | 433 kts | 75° |
| 2026-05-04 16:55 | -5.49685 | 117.32085 | 29083 ft | 439 kts | 78° |
| 2026-05-04 16:56 | -5.48672 | 117.38064 | 28568 ft | 431 kts | 82° |
| 2026-05-04 16:56 | -5.47560 | 117.46932 | 27819 ft | 427 kts | 83° |
| 2026-05-04 16:57 | -5.47196 | 117.49889 | 27579 ft | 426 kts | 83° |
| 2026-05-04 16:57 | -5.46467 | 117.55759 | 27086 ft | 421 kts | 83° |
| 2026-05-04 16:58 | -5.45377 | 117.64468 | 26366 ft | 417 kts | 83° |
| 2026-05-04 16:58 | -5.45016 | 117.67352 | 26132 ft | 415 kts | 83° |
| 2026-05-04 16:59 | -5.44298 | 117.73078 | 25670 ft | 412 kts | 83° |
| 2026-05-04 17:00 | -5.42872 | 117.84426 | 24767 ft | 406 kts | 83° |
| 2026-05-04 17:00 | -5.41817 | 117.92816 | 24109 ft | 403 kts | 83° |
| 2026-05-04 17:01 | -5.41116 | 117.98380 | 23675 ft | 399 kts | 83° |
| 2026-05-04 17:01 | -5.40426 | 118.03846 | 23209 ft | 396 kts | 83° |
| 2026-05-04 17:02 | -5.39735 | 118.09322 | 22707 ft | 394 kts | 83° |
| 2026-05-04 17:02 | -5.39069 | 118.14645 | 22228 ft | 377 kts | 83° |
| 2026-05-04 17:03 | -5.38747 | 118.17232 | 21924 ft | 370 kts | 83° |
| 2026-05-04 17:03 | -5.38428 | 118.19793 | 21616 ft | 371 kts | 83° |
| 2026-05-04 17:03 | -5.37890 | 118.24098 | 21086 ft | 375 kts | 83° |
| 2026-05-04 17:04 | -5.37244 | 118.29265 | 20474 ft | 369 kts | 83° |
| 2026-05-04 17:04 | -5.36611 | 118.34325 | 19478 ft | 363 kts | 83° |
| 2026-05-04 17:05 | -5.35986 | 118.39324 | 18466 ft | 359 kts | 83° |
| 2026-05-04 17:05 | -5.35366 | 118.44260 | 17404 ft | 354 kts | 83° |
| 2026-05-04 17:06 | -5.34755 | 118.49125 | 16309 ft | 349 kts | 83° |
| 2026-05-04 17:06 | -5.34456 | 118.51497 | 15777 ft | 346 kts | 83° |
| 2026-05-04 17:07 | -5.33860 | 118.56253 | 14912 ft | 337 kts | 84° |
| 2026-05-04 17:07 | -5.33662 | 118.57831 | 14823 ft | 338 kts | 84° |
| 2026-05-04 17:07 | -5.33268 | 118.60976 | 14648 ft | 344 kts | 84° |
| 2026-05-04 17:07 | -5.32969 | 118.63347 | 14476 ft | 341 kts | 84° |
| 2026-05-04 17:08 | -5.32672 | 118.65704 | 14118 ft | 339 kts | 84° |
| 2026-05-04 17:08 | -5.32084 | 118.70376 | 13030 ft | 335 kts | 84° |
| 2026-05-04 17:08 | -5.31795 | 118.72679 | 12502 ft | 331 kts | 84° |
| 2026-05-04 17:09 | -5.31509 | 118.74965 | 11972 ft | 328 kts | 84° |
| 2026-05-04 17:09 | -5.31226 | 118.77226 | 11428 ft | 326 kts | 84° |
| 2026-05-04 17:09 | -5.30941 | 118.79476 | 10895 ft | 323 kts | 83° |
| 2026-05-04 17:10 | -5.30386 | 118.83872 | 9896 ft | 316 kts | 83° |
| 2026-05-04 17:10 | -5.29616 | 118.89959 | 9136 ft | 278 kts | 83° |
| 2026-05-04 17:11 | -5.29466 | 118.91867 | 8669 ft | 272 kts | 91° |
| 2026-05-04 17:11 | -5.29481 | 118.93711 | 8519 ft | 256 kts | 91° |
| 2026-05-04 17:11 | -5.29485 | 118.97148 | 8071 ft | 241 kts | 91° |
| 2026-05-04 17:12 | -5.29480 | 118.98869 | 7925 ft | 249 kts | 90° |
| 2026-05-04 17:12 | -5.29466 | 119.02315 | 7616 ft | 244 kts | 90° |
| 2026-05-04 17:13 | -5.29443 | 119.07411 | 7167 ft | 243 kts | 91° |
| 2026-05-04 17:14 | -5.29422 | 119.12470 | 6440 ft | 240 kts | 90° |
| 2026-05-04 17:14 | -5.29416 | 119.14140 | 6035 ft | 239 kts | 90° |
| 2026-05-04 17:14 | -5.29405 | 119.17461 | 5208 ft | 237 kts | 90° |
| 2026-05-04 17:15 | -5.29398 | 119.19106 | 4817 ft | 236 kts | 90° |
| 2026-05-04 17:15 | -5.29384 | 119.22365 | 4205 ft | 229 kts | 90° |
| 2026-05-04 17:16 | -5.29371 | 119.25629 | 3965 ft | 233 kts | 90° |
| 2026-05-04 17:16 | -5.29349 | 119.30514 | 3969 ft | 234 kts | 90° |
| 2026-05-04 17:17 | -5.29343 | 119.32148 | 3972 ft | 234 kts | 90° |
| 2026-05-04 17:17 | -5.29321 | 119.37010 | 3969 ft | 222 kts | 90° |
| 2026-05-04 17:18 | -5.29314 | 119.38568 | 3981 ft | 224 kts | 90° |
| 2026-05-04 17:18 | -5.29279 | 119.41672 | 3965 ft | 224 kts | 85° |
| 2026-05-04 17:19 | -5.27586 | 119.44100 | 3982 ft | 215 kts | 30° |
| 2026-05-04 17:19 | -5.24855 | 119.45372 | 3975 ft | 217 kts | 28° |
| 2026-05-04 17:20 | -5.22377 | 119.46788 | 3966 ft | 191 kts | 30° |
| 2026-05-04 17:20 | -5.20069 | 119.48121 | 3967 ft | 180 kts | 31° |
| 2026-05-04 17:20 | -5.18977 | 119.48753 | 3972 ft | 184 kts | 31° |
| 2026-05-04 17:21 | -5.16869 | 119.49975 | 3974 ft | 174 kts | 31° |
| 2026-05-04 17:21 | -5.14739 | 119.51196 | 3217 ft | 174 kts | 30° |
| 2026-05-04 17:22 | -5.13698 | 119.51781 | 2798 ft | 169 kts | 30° |
| 2026-05-04 17:22 | -5.12670 | 119.52353 | 2263 ft | 173 kts | 29° |
| 2026-05-04 17:23 | -5.09413 | 119.54299 | 377 ft | 185 kts | 32° |
| 2026-05-04 17:23 | -5.08318 | 119.54918 | 45 ft | 165 kts | 29° |
| 2026-05-04 17:23 | -5.07032 | 119.55672 | 45 ft | 49 kts | 29° |
| 2026-05-04 17:24 | -5.06893 | 119.55750 | 46 ft | 12 kts | 29° |
| 2026-05-04 17:24 | -5.06685 | 119.55756 | 47 ft | 11 kts | 314° |
| 2026-05-04 17:25 | -5.06681 | 119.55683 | 47 ft | 11 kts | 242° |
| 2026-05-04 17:25 | -5.06819 | 119.55589 | 47 ft | 13 kts | 210° |
| 2026-05-04 17:26 | -5.06990 | 119.55491 | 47 ft | 15 kts | 209° |
| 2026-05-04 17:26 | -5.07279 | 119.55323 | 47 ft | 17 kts | 210° |
| 2026-05-04 17:27 | -5.07492 | 119.55202 | 47 ft | 18 kts | 210° |
| 2026-05-04 17:27 | -5.07718 | 119.55072 | 47 ft | 19 kts | 210° |
| 2026-05-04 17:28 | -5.07927 | 119.54951 | 47 ft | 14 kts | 210° |
| 2026-05-04 17:29 | -5.08009 | 119.54745 | 47 ft | 13 kts | 297° |
| 2026-05-04 17:29 | -5.08120 | 119.54555 | 47 ft | 11 kts | 288° |
| 2026-05-04 17:30 | -5.08055 | 119.54435 | 47 ft | 0 kts | 300° |
| 2026-05-04 17:31 | -5.08053 | 119.54433 | 47 ft | 0 kts | 300° |
| 2026-05-04 17:31 | -5.08055 | 119.54437 | 47 ft | 4 kts | 300° |
| 2026-05-04 17:32 | -5.08083 | 119.54485 | 47 ft | 4 kts | 300° |
| 2026-05-04 17:33 | -5.08140 | 119.54571 | 43 ft | 4 kts | 340° |
| 2026-05-04 17:33 | -5.08167 | 119.54579 | 41 ft | 4 kts | 354° |
| 2026-05-04 17:34 | -5.08197 | 119.54580 | 42 ft | 0 kts | 8° |
| 2026-05-04 17:34 | -5.08194 | 119.54583 | 42 ft | 2 kts | 18° |
| 2026-05-04 17:35 | -5.07952 | 119.54737 | 47 ft | 20 kts | 29° |
| 2026-05-04 17:35 | -5.07777 | 119.54837 | 47 ft | 1 kts | 30° |
| 2026-05-04 17:35 | -5.07759 | 119.54828 | 47 ft | 3 kts | 333° |
| 2026-05-04 17:36 | -5.07741 | 119.54809 | 47 ft | 4 kts | 303° |
| 2026-05-04 17:36 | -5.07721 | 119.54785 | 47 ft | 5 kts | 309° |
| 2026-05-04 17:36 | -5.07717 | 119.54778 | 47 ft | 1 kts | 302° |
| 2026-05-04 17:36 | -5.07713 | 119.54771 | 47 ft | 0 kts | 302° |